Observation data for Fort Lewis CO on 03/01/2021      Previous  Date  Next       Current Mesonet Observations  Soil Data  Daily Summary Page  Observations in Plain Language
KFL1 010600Z 02006KT M11/M19 A3023 RMK A01 T11091187  RH  053%=      5-min Rain = 0
KFL1 010601Z 02006KT M11/M19 A3023 RMK A01 T11071186  RH  052%=      5-min Rain = 0
KFL1 010602Z 02007KT M11/M19 A3023 RMK A01 T11091189  RH  052%=      5-min Rain = 0
KFL1 010603Z 01007KT M11/M19 A3023 RMK A01 T11141193  RH  052%=      5-min Rain = 0
KFL1 010604Z 01007KT M12/M20 A3023 RMK A01 T11201196  RH  053%=      5-min Rain = 0
KFL1 010605Z 01007KT M13/M20 A3023 RMK A01 T11251199  RH  054%=      5-min Rain = 0
KFL1 010606Z 01007KT M13/M20 A3023 RMK A01 T11301200  RH  055%=      5-min Rain = 0
KFL1 010607Z 02007KT M13/M20 A3023 RMK A01 T11311198  RH  057%=      5-min Rain = 0
KFL1 010608Z 03006KT M13/M20 A3023 RMK A01 T11291196  RH  057%=      5-min Rain = 0
KFL1 010609Z 03006KT M12/M19 A3023 RMK A01 T11241192  RH  057%=      5-min Rain = 0
KFL1 010610Z 03006KT M12/M19 A3023 RMK A01 T11211189  RH  057%=      5-min Rain = 0
KFL1 010611Z 02005KT M12/M19 A3023 RMK A01 T11201190  RH  056%=      5-min Rain = 0
KFL1 010612Z 03005KT M12/M19 A3023 RMK A01 T11221193  RH  055%=      5-min Rain = 0
KFL1 010613Z 04003KT M12/M19 A3023 RMK A01 T11221192  RH  056%=      5-min Rain = 0
KFL1 010614Z 04005KT M12/M19 A3023 RMK A01 T11221191  RH  056%=      5-min Rain = 0
KFL1 010615Z 04005KT M12/M19 A3023 RMK A01 T11201189  RH  056%=      5-min Rain = 0
KFL1 010616Z 04006KT M12/M19 A3023 RMK A01 T11191189  RH  056%=      5-min Rain = 0
KFL1 010617Z 04006KT M12/M19 A3023 RMK A01 T11161187  RH  055%=      5-min Rain = 0
KFL1 010618Z 03006KT M12/M19 A3023 RMK A01 T11151188  RH  055%=      5-min Rain = 0
KFL1 010619Z 03006KT M11/M19 A3023 RMK A01 T11141188  RH  054%=      5-min Rain = 0
KFL1 010620Z 03006KT M11/M19 A3023 RMK A01 T11121187  RH  054%=      5-min Rain = 0
KFL1 010621Z 03006KT M11/M19 A3023 RMK A01 T11121189  RH  053%=      5-min Rain = 0
KFL1 010622Z 02006KT M11/M19 A3023 RMK A01 T11111189  RH  053%=      5-min Rain = 0
KFL1 010623Z 02006KT M12/M20 A3023 RMK A01 T11181196  RH  053%=      5-min Rain = 0
KFL1 010624Z 03007KT M13/M20 A3023 RMK A01 T11261200  RH  054%=      5-min Rain = 0
KFL1 010625Z 03005KT M13/M20 A3023 RMK A01 T11281199  RH  055%=      5-min Rain = 0
KFL1 010626Z 03005KT M13/M20 A3023 RMK A01 T11331202  RH  056%=      5-min Rain = 0
KFL1 010627Z 03005KT M13/M20 A3023 RMK A01 T11341200  RH  058%=      5-min Rain = 0
KFL1 010628Z 03005KT M13/M20 A3023 RMK A01 T11321195  RH  059%=      5-min Rain = 0
KFL1 010629Z 03006KT M13/M19 A3023 RMK A01 T11261190  RH  059%=      5-min Rain = 0
KFL1 010630Z 03005KT M12/M19 A3023 RMK A01 T11241190  RH  058%=      5-min Rain = 0
KFL1 010631Z 03005KT M12/M19 A3023 RMK A01 T11241192  RH  057%=      5-min Rain = 0
KFL1 010632Z 05006KT M13/M19 A3023 RMK A01 T11261194  RH  057%=      5-min Rain = 0
KFL1 010633Z 05007KT M12/M19 A3023 RMK A01 T11221189  RH  057%=      5-min Rain = 0
KFL1 010634Z 05008KT M12/M19 A3023 RMK A01 T11191187  RH  057%=      5-min Rain = 0
KFL1 010635Z 04009KT M12/M19 A3023 RMK A01 T11171187  RH  056%=      5-min Rain = 0
KFL1 010636Z 04009KT M12/M19 A3023 RMK A01 T11181190  RH  055%=      5-min Rain = 0
KFL1 010637Z 04008KT M12/M19 A3023 RMK A01 T11161191  RH  054%=      5-min Rain = 0
KFL1 010638Z 04008KT M12/M19 A3023 RMK A01 T11161193  RH  053%=      5-min Rain = 0
KFL1 010639Z 03007KT M12/M20 A3023 RMK A01 T11161195  RH  052%=      5-min Rain = 0
KFL1 010640Z 03007KT M11/M19 A3023 RMK A01 T11141193  RH  052%=      5-min Rain = 0
KFL1 010641Z 03006KT M11/M19 A3023 RMK A01 T11141194  RH  052%=      5-min Rain = 0
KFL1 010642Z 04007KT M11/M19 A3023 RMK A01 T11141194  RH  052%=      5-min Rain = 0
KFL1 010643Z 04007KT M11/M19 A3023 RMK A01 T11121192  RH  052%=      5-min Rain = 0
KFL1 010644Z 04007KT M11/M19 A3023 RMK A01 T11131194  RH  052%=      5-min Rain = 0
KFL1 010645Z 04007KT M11/M19 A3023 RMK A01 T11121192  RH  052%=      5-min Rain = 0
KFL1 010646Z 04007KT M11/M20 A3023 RMK A01 T11141195  RH  051%=      5-min Rain = 0
KFL1 010647Z 04007KT M11/M20 A3023 RMK A01 T11141195  RH  051%=      5-min Rain = 0
KFL1 010648Z 04007KT M11/M20 A3023 RMK A01 T11131195  RH  051%=      5-min Rain = 0
KFL1 010649Z 04008KT M12/M20 A3023 RMK A01 T11151196  RH  051%=      5-min Rain = 0
KFL1 010650Z 04007KT M12/M20 A3023 RMK A01 T11151195  RH  052%=      5-min Rain = 0
KFL1 010651Z 04007KT M12/M20 A3023 RMK A01 T11151195  RH  052%=      5-min Rain = 0
KFL1 010652Z 04007KT M12/M20 A3023 RMK A01 T11151195  RH  052%=      5-min Rain = 0
KFL1 010653Z 04007KT M12/M19 A3023 RMK A01 T11151194  RH  052%=      5-min Rain = 0
KFL1 010654Z 04007KT M12/M19 A3023 RMK A01 T11151194  RH  052%=      5-min Rain = 0
KFL1 010655Z 04006KT M11/M20 A3023 RMK A01 T11141195  RH  051%=      5-min Rain = 0
KFL1 010656Z 03006KT M12/M20 A3023 RMK A01 T11151196  RH  051%=      5-min Rain = 0
KFL1 010657Z 03005KT M11/M20 A3023 RMK A01 T11141196  RH  051%=      5-min Rain = 0
KFL1 010658Z 02006KT M12/M20 A3023 RMK A01 T11171199  RH  050%=      5-min Rain = 0
KFL1 010659Z 02007KT M13/M21 A3023 RMK A01 T11251205  RH  051%=      5-min Rain = 0
KFL1 010700Z 02008KT M13/M21 A3023 RMK A01 T11321207  RH  053%=      5-min Rain = 0
KFL1 010701Z 02008KT M14/M21 A3023 RMK A01 T11361207  RH  055%=      5-min Rain = 0
KFL1 010702Z 02007KT M14/M21 A3023 RMK A01 T11401208  RH  057%=      5-min Rain = 0
KFL1 010703Z 03005KT M14/M20 A3023 RMK A01 T11401204  RH  058%=      5-min Rain = 0
KFL1 010704Z 02005KT M14/M20 A3023 RMK A01 T11401202  RH  059%=      5-min Rain = 0
KFL1 010705Z 02007KT M14/M20 A3023 RMK A01 T11421203  RH  060%=      5-min Rain = 0
KFL1 010706Z 01008KT M14/M20 A3023 RMK A01 T11411201  RH  061%=      5-min Rain = 0
KFL1 010707Z 01008KT M14/M20 A3023 RMK A01 T11391199  RH  060%=      5-min Rain = 0
KFL1 010708Z 02008KT M14/M20 A3023 RMK A01 T11381199  RH  060%=      5-min Rain = 0
KFL1 010709Z 02008KT M14/M20 A3023 RMK A01 T11361199  RH  059%=      5-min Rain = 0
KFL1 010710Z 03007KT M14/M20 A3023 RMK A01 T11361200  RH  058%=      5-min Rain = 0
KFL1 010711Z 03007KT M13/M20 A3023 RMK A01 T11341200  RH  058%=      5-min Rain = 0
KFL1 010712Z 02007KT M13/M20 A3023 RMK A01 T11321200  RH  057%=      5-min Rain = 0
KFL1 010713Z 02007KT M13/M20 A3023 RMK A01 T11301200  RH  056%=      5-min Rain = 0
KFL1 010714Z 02007KT M13/M20 A3023 RMK A01 T11281199  RH  055%=      5-min Rain = 0
KFL1 010715Z 02007KT M13/M20 A3023 RMK A01 T11281201  RH  055%=      5-min Rain = 0
KFL1 010716Z 02007KT M13/M20 A3023 RMK A01 T11301201  RH  055%=      5-min Rain = 0
KFL1 010717Z 03006KT M13/M20 A3023 RMK A01 T11331203  RH  056%=      5-min Rain = 0
KFL1 010718Z 03006KT M13/M20 A3023 RMK A01 T11301199  RH  056%=      5-min Rain = 0
KFL1 010719Z 03006KT M13/M20 A3023 RMK A01 T11281198  RH  055%=      5-min Rain = 0
KFL1 010720Z 03006KT M13/M20 A3023 RMK A01 T11251198  RH  055%=      5-min Rain = 0
KFL1 010721Z 03006KT M12/M20 A3023 RMK A01 T11221197  RH  053%=      5-min Rain = 0
KFL1 010722Z 03006KT M12/M20 A3023 RMK A01 T11211199  RH  052%=      5-min Rain = 0
KFL1 010723Z 03006KT M12/M20 A3023 RMK A01 T11211200  RH  052%=      5-min Rain = 0
KFL1 010724Z 03006KT M12/M20 A3023 RMK A01 T11191199  RH  051%=      5-min Rain = 0
KFL1 010725Z 02007KT M12/M20 A3023 RMK A01 T11221202  RH  051%=      5-min Rain = 0
KFL1 010726Z 01007KT M13/M21 A3023 RMK A01 T11271206  RH  052%=      5-min Rain = 0
KFL1 010727Z 01006KT M13/M21 A3023 RMK A01 T11321208  RH  053%=      5-min Rain = 0
KFL1 010728Z 02007KT M13/M21 A3023 RMK A01 T11341207  RH  054%=      5-min Rain = 0
KFL1 010729Z 02007KT M14/M21 A3023 RMK A01 T11361207  RH  055%=      5-min Rain = 0
KFL1 010730Z 03006KT M14/M21 A3023 RMK A01 T11371206  RH  056%=      5-min Rain = 0
KFL1 010731Z 03005KT M14/M21 A3023 RMK A01 T11371205  RH  056%=      5-min Rain = 0
KFL1 010732Z 03006KT M14/M20 A3023 RMK A01 T11351203  RH  056%=      5-min Rain = 0
KFL1 010733Z 03006KT M13/M20 A3023 RMK A01 T11341203  RH  056%=      5-min Rain = 0
KFL1 010734Z 03006KT M13/M20 A3023 RMK A01 T11341203  RH  056%=      5-min Rain = 0
KFL1 010735Z 02006KT M13/M20 A3023 RMK A01 T11311200  RH  056%=      5-min Rain = 0
KFL1 010736Z 03007KT M13/M20 A3023 RMK A01 T11261197  RH  055%=      5-min Rain = 0
KFL1 010737Z 03006KT M13/M20 A3023 RMK A01 T11271202  RH  054%=      5-min Rain = 0
KFL1 010738Z 03006KT M13/M20 A3023 RMK A01 T11271201  RH  054%=      5-min Rain = 0
KFL1 010739Z 03006KT M13/M20 A3023 RMK A01 T11271201  RH  054%=      5-min Rain = 0
KFL1 010740Z 04006KT M12/M20 A3023 RMK A01 T11231199  RH  053%=      5-min Rain = 0
KFL1 010741Z 04006KT M12/M20 A3023 RMK A01 T11181197  RH  052%=      5-min Rain = 0
KFL1 010742Z 04007KT M12/M20 A3023 RMK A01 T11171199  RH  050%=      5-min Rain = 0
KFL1 010743Z 04006KT M12/M20 A3023 RMK A01 T11161201  RH  049%=      5-min Rain = 0
KFL1 010744Z 04007KT M11/M20 A3023 RMK A01 T11131199  RH  049%=      5-min Rain = 0
KFL1 010745Z 04007KT M11/M20 A3023 RMK A01 T11131201  RH  048%=      5-min Rain = 0
KFL1 010746Z 04006KT M11/M20 A3023 RMK A01 T11121200  RH  048%=      5-min Rain = 0
KFL1 010747Z 04006KT M11/M20 A3023 RMK A01 T11121202  RH  048%=      5-min Rain = 0
KFL1 010748Z 04006KT M11/M20 A3023 RMK A01 T11101200  RH  047%=      5-min Rain = 0
KFL1 010749Z 04006KT M11/M20 A3023 RMK A01 T11121204  RH  047%=      5-min Rain = 0
KFL1 010750Z 03005KT M12/M21 A3023 RMK A01 T11161206  RH  047%=      5-min Rain = 0
KFL1 010751Z 03005KT M13/M21 A3023 RMK A01 T11251214  RH  048%=      5-min Rain = 0
KFL1 010752Z 04007KT M13/M22 A3023 RMK A01 T11331216  RH  050%=      5-min Rain = 0
KFL1 010753Z 04006KT M13/M21 A3023 RMK A01 T11311210  RH  052%=      5-min Rain = 0
KFL1 010754Z 04006KT M12/M20 A3023 RMK A01 T11231202  RH  052%=      5-min Rain = 0
KFL1 010755Z 03006KT M12/M20 A3023 RMK A01 T11211202  RH  051%=      5-min Rain = 0
KFL1 010756Z 03006KT M12/M21 A3023 RMK A01 T11241206  RH  051%=      5-min Rain = 0
KFL1 010757Z 03006KT M13/M21 A3023 RMK A01 T11301211  RH  051%=      5-min Rain = 0
KFL1 010758Z 03007KT M14/M21 A3023 RMK A01 T11361212  RH  052%=      5-min Rain = 0
KFL1 010759Z 03005KT M14/M21 A3023 RMK A01 T11401213  RH  054%=      5-min Rain = 0
KFL1 010800Z 03004KT M15/M22 A3023 RMK A01 T11461216  RH  056%=      5-min Rain = 0
KFL1 010801Z 03004KT M15/M21 A3023 RMK A01 T11471213  RH  057%=      5-min Rain = 0
KFL1 010802Z 03005KT M14/M21 A3023 RMK A01 T11431207  RH  059%=      5-min Rain = 0
KFL1 010803Z 03004KT M14/M20 A3023 RMK A01 T11411204  RH  058%=      5-min Rain = 0
KFL1 010804Z 03004KT M14/M20 A3023 RMK A01 T11351202  RH  057%=      5-min Rain = 0
KFL1 010805Z 03005KT M13/M20 A3023 RMK A01 T11341203  RH  056%=      5-min Rain = 0
KFL1 010806Z 02005KT M13/M21 A3023 RMK A01 T11341205  RH  055%=      5-min Rain = 0
KFL1 010807Z 02007KT M14/M21 A3023 RMK A01 T11421211  RH  056%=      5-min Rain = 0
KFL1 010808Z 02008KT M14/M21 A3023 RMK A01 T11411208  RH  057%=      5-min Rain = 0
KFL1 010809Z 02008KT M14/M21 A3023 RMK A01 T11431208  RH  057%=      5-min Rain = 0
KFL1 010810Z 01008KT M14/M21 A3023 RMK A01 T11441208  RH  058%=      5-min Rain = 0
KFL1 010811Z 01008KT M15/M21 A3023 RMK A01 T11451208  RH  059%=      5-min Rain = 0
KFL1 010812Z 01007KT M15/M21 A3023 RMK A01 T11451209  RH  058%=      5-min Rain = 0
KFL1 010813Z 03007KT M14/M21 A3023 RMK A01 T11401206  RH  057%=      5-min Rain = 0
KFL1 010814Z 03006KT M13/M20 A3023 RMK A01 T11331204  RH  055%=      5-min Rain = 0
KFL1 010815Z 04004KT M13/M20 A3023 RMK A01 T11281204  RH  053%=      5-min Rain = 0
KFL1 010816Z 03004KT M13/M20 A3023 RMK A01 T11251204  RH  052%=      5-min Rain = 0
KFL1 010817Z 04005KT M12/M21 A3023 RMK A01 T11241205  RH  051%=      5-min Rain = 0
KFL1 010818Z 04005KT M12/M21 A3023 RMK A01 T11221205  RH  050%=      5-min Rain = 0
KFL1 010819Z 04005KT M12/M21 A3023 RMK A01 T11221206  RH  049%=      5-min Rain = 0
KFL1 010820Z 04006KT M12/M21 A3023 RMK A01 T11211206  RH  049%=      5-min Rain = 0
KFL1 010821Z 04007KT M12/M21 A3023 RMK A01 T11201205  RH  049%=      5-min Rain = 0
KFL1 010822Z 04007KT M12/M21 A3023 RMK A01 T11211207  RH  049%=      5-min Rain = 0
KFL1 010823Z 04006KT M12/M21 A3023 RMK A01 T11201206  RH  049%=      5-min Rain = 0
KFL1 010824Z 04007KT M12/M21 A3023 RMK A01 T11191206  RH  049%=      5-min Rain = 0
KFL1 010825Z 04006KT M12/M21 A3023 RMK A01 T11191206  RH  048%=      5-min Rain = 0
KFL1 010826Z 04006KT M12/M21 A3023 RMK A01 T11171205  RH  048%=      5-min Rain = 0
KFL1 010827Z 04006KT M12/M21 A3023 RMK A01 T11161205  RH  048%=      5-min Rain = 0
KFL1 010828Z 04007KT M12/M21 A3023 RMK A01 T11171206  RH  048%=      5-min Rain = 0
KFL1 010829Z 05006KT M12/M21 A3023 RMK A01 T11171207  RH  047%=      5-min Rain = 0
KFL1 010830Z 05007KT M12/M21 A3023 RMK A01 T11171207  RH  047%=      5-min Rain = 0
KFL1 010831Z 05008KT M12/M21 A3023 RMK A01 T11171207  RH  047%=      5-min Rain = 0
KFL1 010832Z 05008KT M12/M21 A3023 RMK A01 T11181208  RH  047%=      5-min Rain = 0
KFL1 010833Z 05009KT M12/M21 A3024 RMK A01 T11181207  RH  047%=      5-min Rain = 0
KFL1 010834Z 05009KT M12/M21 A3024 RMK A01 T11181208  RH  047%=      5-min Rain = 0
KFL1 010835Z 04009KT M12/M21 A3024 RMK A01 T11181208  RH  047%=      5-min Rain = 0
KFL1 010836Z 05009KT M12/M21 A3024 RMK A01 T11171208  RH  047%=      5-min Rain = 0
KFL1 010837Z 04008KT M12/M21 A3024 RMK A01 T11161208  RH  047%=      5-min Rain = 0
KFL1 010838Z 04009KT M12/M21 A3024 RMK A01 T11171209  RH  046%=      5-min Rain = 0
KFL1 010839Z 04009KT M12/M21 A3024 RMK A01 T11171210  RH  046%=      5-min Rain = 0
KFL1 010840Z 04008KT M12/M21 A3024 RMK A01 T11161210  RH  046%=      5-min Rain = 0
KFL1 010841Z 04006KT M12/M21 A3023 RMK A01 T11161209  RH  046%=      5-min Rain = 0
KFL1 010842Z 04006KT M12/M21 A3023 RMK A01 T11171210  RH  046%=      5-min Rain = 0
KFL1 010843Z 04005KT M12/M21 A3023 RMK A01 T11161208  RH  046%=      5-min Rain = 0
KFL1 010844Z 03005KT M12/M21 A3023 RMK A01 T11191210  RH  047%=      5-min Rain = 0
KFL1 010845Z 04004KT M12/M21 A3023 RMK A01 T11221211  RH  048%=      5-min Rain = 0
KFL1 010846Z 04004KT M13/M21 A3023 RMK A01 T11271213  RH  049%=      5-min Rain = 0
KFL1 010847Z 04005KT M13/M21 A3023 RMK A01 T11311213  RH  050%=      5-min Rain = 0
KFL1 010848Z 04005KT M13/M21 A3023 RMK A01 T11311210  RH  051%=      5-min Rain = 0
KFL1 010849Z 04005KT M13/M21 A3023 RMK A01 T11301209  RH  051%=      5-min Rain = 0
KFL1 010850Z 03005KT M13/M21 A3023 RMK A01 T11281208  RH  051%=      5-min Rain = 0
KFL1 010851Z 04004KT M13/M21 A3023 RMK A01 T11271207  RH  051%=      5-min Rain = 0
KFL1 010852Z 04004KT M13/M21 A3023 RMK A01 T11271208  RH  050%=      5-min Rain = 0
KFL1 010853Z 03004KT M13/M21 A3023 RMK A01 T11251208  RH  050%=      5-min Rain = 0
KFL1 010854Z 04005KT M13/M21 A3023 RMK A01 T11281211  RH  050%=      5-min Rain = 0
KFL1 010855Z 05006KT M13/M21 A3023 RMK A01 T11301212  RH  050%=      5-min Rain = 0
KFL1 010856Z 05006KT M13/M21 A3023 RMK A01 T11301211  RH  050%=      5-min Rain = 0
KFL1 010857Z 05007KT M13/M21 A3023 RMK A01 T11261207  RH  051%=      5-min Rain = 0
KFL1 010858Z 05008KT M13/M21 A3023 RMK A01 T11251206  RH  051%=      5-min Rain = 0
KFL1 010859Z 05008KT M13/M21 A3023 RMK A01 T11251206  RH  051%=      5-min Rain = 0
KFL1 010900Z 05009KT M12/M21 A3023 RMK A01 T11231206  RH  050%=      5-min Rain = 0
KFL1 010901Z 05009KT M12/M21 A3023 RMK A01 T11231207  RH  050%=      5-min Rain = 0
KFL1 010902Z 05009KT M12/M21 A3023 RMK A01 T11231209  RH  049%=      5-min Rain = 0
KFL1 010903Z 05009KT M12/M21 A3023 RMK A01 T11201208  RH  048%=      5-min Rain = 0
KFL1 010904Z 05010KT M12/M21 A3023 RMK A01 T11201210  RH  047%=      5-min Rain = 0
KFL1 010905Z 05010KT M12/M21 A3023 RMK A01 T11181210  RH  046%=      5-min Rain = 0
KFL1 010906Z 05008KT M12/M21 A3023 RMK A01 T11171211  RH  046%=      5-min Rain = 0
KFL1 010907Z 04009KT M11/M21 A3023 RMK A01 T11141209  RH  045%=      5-min Rain = 0
KFL1 010908Z 05008KT M11/M21 A3023 RMK A01 T11141212  RH  044%=      5-min Rain = 0
KFL1 010909Z 05009KT M11/M21 A3023 RMK A01 T11131213  RH  043%=      5-min Rain = 0
KFL1 010910Z 05009KT M11/M21 A3023 RMK A01 T11131213  RH  043%=      5-min Rain = 0
KFL1 010911Z 05009KT M11/M21 A3023 RMK A01 T11121212  RH  043%=      5-min Rain = 0
KFL1 010912Z 05007KT M11/M21 A3023 RMK A01 T11131214  RH  043%=      5-min Rain = 0
KFL1 010913Z 05009KT M11/M21 A3023 RMK A01 T11121214  RH  043%=      5-min Rain = 0
KFL1 010914Z 04008KT M11/M21 A3023 RMK A01 T11121214  RH  043%=      5-min Rain = 0
KFL1 010915Z 05010KT M11/M21 A3023 RMK A01 T11121214  RH  043%=      5-min Rain = 0
KFL1 010916Z 04009KT M11/M21 A3023 RMK A01 T11101213  RH  042%=      5-min Rain = 0
KFL1 010917Z 04008KT M11/M21 A3023 RMK A01 T11101214  RH  042%=      5-min Rain = 0
KFL1 010918Z 04010KT M11/M21 A3023 RMK A01 T11091214  RH  042%=      5-min Rain = 0
KFL1 010919Z 04010KT M11/M22 A3023 RMK A01 T11111216  RH  042%=      5-min Rain = 0
KFL1 010920Z 05010KT M11/M22 A3023 RMK A01 T11111216  RH  042%=      5-min Rain = 0
KFL1 010921Z 04011KT M11/M21 A3023 RMK A01 T11101214  RH  042%=      5-min Rain = 0
KFL1 010922Z 04009KT M11/M22 A3023 RMK A01 T11111215  RH  042%=      5-min Rain = 0
KFL1 010923Z 04010KT M11/M22 A3023 RMK A01 T11121216  RH  042%=      5-min Rain = 0
KFL1 010924Z 04009KT M11/M22 A3023 RMK A01 T11101215  RH  042%=      5-min Rain = 0
KFL1 010925Z 04010KT M11/M22 A3023 RMK A01 T11111216  RH  042%=      5-min Rain = 0
KFL1 010926Z 04009KT M11/M22 A3023 RMK A01 T11101215  RH  042%=      5-min Rain = 0
KFL1 010927Z 04008KT M11/M22 A3023 RMK A01 T11111215  RH  042%=      5-min Rain = 0
KFL1 010928Z 04008KT M11/M21 A3023 RMK A01 T11111213  RH  042%=      5-min Rain = 0
KFL1 010929Z 04008KT M11/M21 A3023 RMK A01 T11121214  RH  043%=      5-min Rain = 0
KFL1 010930Z 04007KT M11/M21 A3023 RMK A01 T11131214  RH  043%=      5-min Rain = 0
KFL1 010931Z 03007KT M11/M21 A3023 RMK A01 T11131213  RH  043%=      5-min Rain = 0
KFL1 010932Z 04007KT M11/M21 A3023 RMK A01 T11131212  RH  044%=      5-min Rain = 0
KFL1 010933Z 03007KT M11/M21 A3023 RMK A01 T11141213  RH  044%=      5-min Rain = 0
KFL1 010934Z 03006KT M11/M21 A3023 RMK A01 T11121211  RH  044%=      5-min Rain = 0
KFL1 010935Z 03006KT M11/M21 A3023 RMK A01 T11141211  RH  044%=      5-min Rain = 0
KFL1 010936Z 03006KT M12/M21 A3023 RMK A01 T11191212  RH  046%=      5-min Rain = 0
KFL1 010937Z 03007KT M12/M21 A3023 RMK A01 T11241212  RH  048%=      5-min Rain = 0
KFL1 010938Z 03008KT M13/M21 A3023 RMK A01 T11271212  RH  049%=      5-min Rain = 0
KFL1 010939Z 03009KT M13/M21 A3023 RMK A01 T11281210  RH  050%=      5-min Rain = 0
KFL1 010940Z 02009KT M13/M21 A3023 RMK A01 T11321211  RH  051%=      5-min Rain = 0
KFL1 010941Z 03009KT M13/M21 A3023 RMK A01 T11341212  RH  052%=      5-min Rain = 0
KFL1 010942Z 02009KT M14/M21 A3023 RMK A01 T11351211  RH  053%=      5-min Rain = 0
KFL1 010943Z 03008KT M14/M21 A3023 RMK A01 T11381212  RH  054%=      5-min Rain = 0
KFL1 010944Z 03007KT M15/M22 A3023 RMK A01 T11451217  RH  054%=      5-min Rain = 0
KFL1 010945Z 02006KT M15/M22 A3023 RMK A01 T11501221  RH  055%=      5-min Rain = 0
KFL1 010946Z 03006KT M15/M22 A3023 RMK A01 T11501219  RH  056%=      5-min Rain = 0
KFL1 010947Z 03007KT M15/M21 A3023 RMK A01 T11461213  RH  056%=      5-min Rain = 0
KFL1 010948Z 04007KT M14/M21 A3023 RMK A01 T11431209  RH  057%=      5-min Rain = 0
KFL1 010949Z 04007KT M14/M21 A3023 RMK A01 T11361205  RH  056%=      5-min Rain = 0
KFL1 010950Z 04006KT M13/M20 A3023 RMK A01 T11301204  RH  054%=      5-min Rain = 0
KFL1 010951Z 05006KT M12/M20 A3023 RMK A01 T11241204  RH  051%=      5-min Rain = 0
KFL1 010952Z 04007KT M12/M20 A3023 RMK A01 T11211204  RH  050%=      5-min Rain = 0
KFL1 010953Z 05008KT M12/M21 A3023 RMK A01 T11211206  RH  049%=      5-min Rain = 0
KFL1 010954Z 05008KT M12/M21 A3023 RMK A01 T11201206  RH  049%=      5-min Rain = 0
KFL1 010955Z 04009KT M12/M21 A3023 RMK A01 T11201208  RH  048%=      5-min Rain = 0
KFL1 010956Z 04010KT M12/M21 A3023 RMK A01 T11191208  RH  047%=      5-min Rain = 0
KFL1 010957Z 05010KT M12/M21 A3023 RMK A01 T11181209  RH  047%=      5-min Rain = 0
KFL1 010958Z 04009KT M12/M21 A3023 RMK A01 T11171210  RH  046%=      5-min Rain = 0
KFL1 010959Z 04009KT M11/M21 A3023 RMK A01 T11141210  RH  045%=      5-min Rain = 0
KFL1 011000Z 04010KT M11/M21 A3023 RMK A01 T11131212  RH  044%=      5-min Rain = 0
KFL1 011001Z 04008KT M11/M21 A3023 RMK A01 T11111213  RH  043%=      5-min Rain = 0
KFL1 011002Z 04008KT M11/M21 A3023 RMK A01 T11091212  RH  042%=      5-min Rain = 0
KFL1 011003Z 04008KT M11/M22 A3023 RMK A01 T11101215  RH  042%=      5-min Rain = 0
KFL1 011004Z 04008KT M11/M21 A3023 RMK A01 T11091214  RH  041%=      5-min Rain = 0
KFL1 011005Z 04008KT M11/M21 A3023 RMK A01 T11061214  RH  041%=      5-min Rain = 0
KFL1 011006Z 04008KT M11/M21 A3023 RMK A01 T11051214  RH  040%=      5-min Rain = 0
KFL1 011007Z 04007KT M10/M21 A3023 RMK A01 T11021212  RH  040%=      5-min Rain = 0
KFL1 011008Z 04008KT M10/M21 A3023 RMK A01 T11021213  RH  040%=      5-min Rain = 0
KFL1 011009Z 04008KT M10/M21 A3023 RMK A01 T11011213  RH  039%=      5-min Rain = 0
KFL1 011010Z 03007KT M10/M22 A3023 RMK A01 T11031215  RH  040%=      5-min Rain = 0
KFL1 011011Z 04008KT M11/M22 A3023 RMK A01 T11051215  RH  040%=      5-min Rain = 0
KFL1 011012Z 04008KT M10/M21 A3023 RMK A01 T11041213  RH  040%=      5-min Rain = 0
KFL1 011013Z 04009KT M11/M22 A3023 RMK A01 T11071215  RH  041%=      5-min Rain = 0
KFL1 011014Z 04009KT M11/M21 A3023 RMK A01 T11061214  RH  041%=      5-min Rain = 0
KFL1 011015Z 04009KT M10/M21 A3023 RMK A01 T11041214  RH  040%=      5-min Rain = 0
KFL1 011016Z 04009KT M10/M21 A3023 RMK A01 T11041214  RH  040%=      5-min Rain = 0
KFL1 011017Z 04008KT M10/M21 A3023 RMK A01 T11011213  RH  040%=      5-min Rain = 0
KFL1 011018Z 04008KT M10/M21 A3023 RMK A01 T11021214  RH  040%=      5-min Rain = 0
KFL1 011019Z 04008KT M10/M21 A3023 RMK A01 T11021213  RH  040%=      5-min Rain = 0
KFL1 011020Z 05008KT M10/M22 A3023 RMK A01 T11041215  RH  040%=      5-min Rain = 0
KFL1 011021Z 04008KT M11/M22 A3023 RMK A01 T11051215  RH  040%=      5-min Rain = 0
KFL1 011022Z 04007KT M10/M21 A3023 RMK A01 T11041213  RH  040%=      5-min Rain = 0
KFL1 011023Z 04007KT M11/M22 A3023 RMK A01 T11061215  RH  040%=      5-min Rain = 0
KFL1 011024Z 04006KT M11/M22 A3023 RMK A01 T11061216  RH  040%=      5-min Rain = 0
KFL1 011025Z 04007KT M10/M22 A3023 RMK A01 T11041215  RH  040%=      5-min Rain = 0
KFL1 011026Z 04007KT M11/M22 A3023 RMK A01 T11051216  RH  040%=      5-min Rain = 0
KFL1 011027Z 04007KT M10/M21 A3023 RMK A01 T11031214  RH  040%=      5-min Rain = 0
KFL1 011028Z 04007KT M11/M21 A3023 RMK A01 T11051214  RH  040%=      5-min Rain = 0
KFL1 011029Z 04008KT M10/M21 A3023 RMK A01 T11041212  RH  041%=      5-min Rain = 0
KFL1 011030Z 04007KT M11/M22 A3023 RMK A01 T11071215  RH  041%=      5-min Rain = 0
KFL1 011031Z 04007KT M11/M21 A3023 RMK A01 T11081214  RH  041%=      5-min Rain = 0
KFL1 011032Z 03006KT M11/M21 A3023 RMK A01 T11071212  RH  042%=      5-min Rain = 0
KFL1 011033Z 04007KT M11/M21 A3023 RMK A01 T11091213  RH  042%=      5-min Rain = 0
KFL1 011034Z 04007KT M11/M21 A3023 RMK A01 T11101214  RH  042%=      5-min Rain = 0
KFL1 011035Z 04008KT M11/M21 A3023 RMK A01 T11091212  RH  042%=      5-min Rain = 0
KFL1 011036Z 04008KT M11/M21 A3023 RMK A01 T11111213  RH  042%=      5-min Rain = 0
KFL1 011037Z 04008KT M11/M21 A3023 RMK A01 T11101213  RH  042%=      5-min Rain = 0
KFL1 011038Z 04008KT M11/M21 A3023 RMK A01 T11081213  RH  042%=      5-min Rain = 0
KFL1 011039Z 04008KT M11/M21 A3023 RMK A01 T11051212  RH  041%=      5-min Rain = 0
KFL1 011040Z 04008KT M10/M21 A3023 RMK A01 T11041213  RH  040%=      5-min Rain = 0
KFL1 011041Z 03008KT M10/M21 A3023 RMK A01 T11021214  RH  040%=      5-min Rain = 0
KFL1 011042Z 03008KT M10/M21 A3023 RMK A01 T11021214  RH  040%=      5-min Rain = 0
KFL1 011043Z 03008KT M11/M22 A3023 RMK A01 T11101216  RH  041%=      5-min Rain = 0
KFL1 011044Z 03008KT M12/M22 A3023 RMK A01 T11181219  RH  043%=      5-min Rain = 0
KFL1 011045Z 03008KT M12/M22 A3023 RMK A01 T11231217  RH  045%=      5-min Rain = 0
KFL1 011046Z 03007KT M13/M22 A3023 RMK A01 T11271217  RH  047%=      5-min Rain = 0
KFL1 011047Z 04006KT M13/M22 A3023 RMK A01 T11291215  RH  049%=      5-min Rain = 0
KFL1 011048Z 03006KT M13/M21 A3023 RMK A01 T11301213  RH  050%=      5-min Rain = 0
KFL1 011049Z 03004KT M13/M21 A3023 RMK A01 T11301211  RH  051%=      5-min Rain = 0
KFL1 011050Z 04005KT M14/M21 A3023 RMK A01 T11351213  RH  052%=      5-min Rain = 0
KFL1 011051Z 04006KT M14/M21 A3023 RMK A01 T11391214  RH  053%=      5-min Rain = 0
KFL1 011052Z 04007KT M14/M21 A3023 RMK A01 T11371211  RH  054%=      5-min Rain = 0
KFL1 011053Z 04007KT M13/M21 A3023 RMK A01 T11311207  RH  053%=      5-min Rain = 0
KFL1 011054Z 04007KT M13/M21 A3023 RMK A01 T11301208  RH  052%=      5-min Rain = 0
KFL1 011055Z 04007KT M13/M21 A3023 RMK A01 T11271208  RH  051%=      5-min Rain = 0
KFL1 011056Z 04007KT M12/M21 A3023 RMK A01 T11241207  RH  050%=      5-min Rain = 0
KFL1 011057Z 04007KT M12/M21 A3023 RMK A01 T11231209  RH  049%=      5-min Rain = 0
KFL1 011058Z 03009KT M12/M21 A3023 RMK A01 T11201208  RH  048%=      5-min Rain = 0
KFL1 011059Z 03009KT M12/M21 A3023 RMK A01 T11191210  RH  047%=      5-min Rain = 0
KFL1 011100Z 03009KT M12/M21 A3023 RMK A01 T11151208  RH  046%=      5-min Rain = 0
KFL1 011101Z 03008KT M12/M21 A3023 RMK A01 T11201213  RH  046%=      5-min Rain = 0
KFL1 011102Z 03008KT M13/M22 A3023 RMK A01 T11251215  RH  047%=      5-min Rain = 0
KFL1 011103Z 03008KT M13/M22 A3023 RMK A01 T11281215  RH  048%=      5-min Rain = 0
KFL1 011104Z 03008KT M13/M21 A3023 RMK A01 T11301214  RH  049%=      5-min Rain = 0
KFL1 011105Z 03008KT M14/M22 A3023 RMK A01 T11401221  RH  050%=      5-min Rain = 0
KFL1 011106Z 03008KT M15/M22 A3023 RMK A01 T11471223  RH  052%=      5-min Rain = 0
KFL1 011107Z 03008KT M15/M22 A3023 RMK A01 T11501222  RH  054%=      5-min Rain = 0
KFL1 011108Z 03007KT M15/M22 A3023 RMK A01 T11491216  RH  057%=      5-min Rain = 0
KFL1 011109Z 03007KT M15/M21 A3023 RMK A01 T11481213  RH  058%=      5-min Rain = 0
KFL1 011110Z 03007KT M14/M21 A3023 RMK A01 T11441208  RH  058%=      5-min Rain = 0
KFL1 011111Z 03007KT M14/M21 A3023 RMK A01 T11431209  RH  058%=      5-min Rain = 0
KFL1 011112Z 03007KT M14/M21 A3023 RMK A01 T11431209  RH  057%=      5-min Rain = 0
KFL1 011113Z 03006KT M14/M21 A3023 RMK A01 T11421208  RH  057%=      5-min Rain = 0
KFL1 011114Z 03006KT M14/M21 A3023 RMK A01 T11431209  RH  057%=      5-min Rain = 0
KFL1 011115Z 04005KT M14/M21 A3024 RMK A01 T11441210  RH  057%=      5-min Rain = 0
KFL1 011116Z 04004KT M14/M21 A3024 RMK A01 T11431209  RH  057%=      5-min Rain = 0
KFL1 011117Z 03005KT M14/M21 A3024 RMK A01 T11401209  RH  056%=      5-min Rain = 0
KFL1 011118Z 03005KT M13/M21 A3024 RMK A01 T11331205  RH  054%=      5-min Rain = 0
KFL1 011119Z 03005KT M13/M21 A3024 RMK A01 T11301207  RH  053%=      5-min Rain = 0
KFL1 011120Z 03005KT M13/M21 A3024 RMK A01 T11261206  RH  051%=      5-min Rain = 0
KFL1 011121Z 03005KT M13/M21 A3024 RMK A01 T11271208  RH  051%=      5-min Rain = 0
KFL1 011122Z 03004KT M13/M21 A3024 RMK A01 T11261209  RH  050%=      5-min Rain = 0
KFL1 011123Z 03004KT M13/M21 A3024 RMK A01 T11251208  RH  050%=      5-min Rain = 0
KFL1 011124Z 03005KT M13/M21 A3024 RMK A01 T11271211  RH  050%=      5-min Rain = 0
KFL1 011125Z 03004KT M13/M21 A3024 RMK A01 T11291212  RH  050%=      5-min Rain = 0
KFL1 011126Z 03004KT M13/M21 A3024 RMK A01 T11301211  RH  050%=      5-min Rain = 0
KFL1 011127Z 03004KT M13/M21 A3024 RMK A01 T11311212  RH  051%=      5-min Rain = 0
KFL1 011128Z 03004KT M13/M21 A3024 RMK A01 T11301210  RH  051%=      5-min Rain = 0
KFL1 011129Z 03004KT M13/M21 A3024 RMK A01 T11301210  RH  051%=      5-min Rain = 0
KFL1 011130Z 03004KT M13/M21 A3024 RMK A01 T11271208  RH  051%=      5-min Rain = 0
KFL1 011131Z 03004KT M13/M21 A3024 RMK A01 T11281211  RH  050%=      5-min Rain = 0
KFL1 011132Z 03005KT M13/M21 A3024 RMK A01 T11271211  RH  050%=      5-min Rain = 0
KFL1 011133Z 03005KT M13/M21 A3024 RMK A01 T11261210  RH  050%=      5-min Rain = 0
KFL1 011134Z 03006KT M13/M21 A3024 RMK A01 T11261210  RH  049%=      5-min Rain = 0
KFL1 011135Z 03007KT M13/M21 A3024 RMK A01 T11261211  RH  049%=      5-min Rain = 0
KFL1 011136Z 03006KT M13/M21 A3024 RMK A01 T11271212  RH  049%=      5-min Rain = 0
KFL1 011137Z 03005KT M13/M22 A3024 RMK A01 T11301215  RH  049%=      5-min Rain = 0
KFL1 011138Z 03005KT M14/M22 A3024 RMK A01 T11381220  RH  050%=      5-min Rain = 0
KFL1 011139Z 03006KT M15/M22 A3024 RMK A01 T11461224  RH  052%=      5-min Rain = 0
KFL1 011140Z 03007KT M15/M22 A3024 RMK A01 T11501223  RH  054%=      5-min Rain = 0
KFL1 011141Z 02008KT M15/M22 A3024 RMK A01 T11511221  RH  055%=      5-min Rain = 0
KFL1 011142Z 03008KT M15/M22 A3024 RMK A01 T11521218  RH  057%=      5-min Rain = 0
KFL1 011143Z 03006KT M15/M22 A3024 RMK A01 T11521216  RH  058%=      5-min Rain = 0
KFL1 011144Z 04004KT M15/M21 A3024 RMK A01 T11491212  RH  058%=      5-min Rain = 0
KFL1 011145Z 04003KT M15/M21 A3024 RMK A01 T11451210  RH  058%=      5-min Rain = 0
KFL1 011146Z 05005KT M14/M21 A3025 RMK A01 T11401206  RH  057%=      5-min Rain = 0
KFL1 011147Z 04006KT M14/M21 A3025 RMK A01 T11371206  RH  056%=      5-min Rain = 0
KFL1 011148Z 04005KT M13/M21 A3025 RMK A01 T11331205  RH  055%=      5-min Rain = 0
KFL1 011149Z 04006KT M13/M21 A3025 RMK A01 T11311207  RH  053%=      5-min Rain = 0
KFL1 011150Z 04006KT M13/M21 A3025 RMK A01 T11291206  RH  052%=      5-min Rain = 0
KFL1 011151Z 04006KT M13/M21 A3025 RMK A01 T11301209  RH  052%=      5-min Rain = 0
KFL1 011152Z 04006KT M13/M21 A3025 RMK A01 T11291209  RH  051%=      5-min Rain = 0
KFL1 011153Z 04007KT M13/M21 A3025 RMK A01 T11271209  RH  051%=      5-min Rain = 0
KFL1 011154Z 04007KT M13/M21 A3025 RMK A01 T11261209  RH  050%=      5-min Rain = 0
KFL1 011155Z 04007KT M13/M21 A3025 RMK A01 T11261210  RH  049%=      5-min Rain = 0
KFL1 011156Z 04007KT M12/M21 A3025 RMK A01 T11231209  RH  049%=      5-min Rain = 0
KFL1 011157Z 04007KT M12/M21 A3025 RMK A01 T11231210  RH  048%=      5-min Rain = 0
KFL1 011158Z 04007KT M12/M21 A3025 RMK A01 T11211209  RH  048%=      5-min Rain = 0
KFL1 011159Z 04007KT M12/M21 A3025 RMK A01 T11201209  RH  047%=      5-min Rain = 0
KFL1 011200Z 04008KT M12/M21 A3025 RMK A01 T11181208  RH  047%=      5-min Rain = 0
KFL1 011201Z 04009KT M12/M21 A3025 RMK A01 T11181210  RH  046%=      5-min Rain = 0
KFL1 011202Z 04009KT M12/M21 A3025 RMK A01 T11191211  RH  046%=      5-min Rain = 0
KFL1 011203Z 04009KT M12/M21 A3025 RMK A01 T11181211  RH  046%=      5-min Rain = 0
KFL1 011204Z 04008KT M12/M21 A3025 RMK A01 T11161211  RH  045%=      5-min Rain = 0
KFL1 011205Z 04009KT M12/M21 A3025 RMK A01 T11161212  RH  045%=      5-min Rain = 0
KFL1 011206Z 04008KT M11/M21 A3025 RMK A01 T11131211  RH  044%=      5-min Rain = 0
KFL1 011207Z 04007KT M11/M21 A3025 RMK A01 T11121212  RH  044%=      5-min Rain = 0
KFL1 011208Z 04008KT M11/M21 A3025 RMK A01 T11101211  RH  043%=      5-min Rain = 0
KFL1 011209Z 04007KT M11/M21 A3025 RMK A01 T11081211  RH  042%=      5-min Rain = 0
KFL1 011210Z 04007KT M10/M21 A3025 RMK A01 T11041210  RH  042%=      5-min Rain = 0
KFL1 011211Z 04007KT M10/M21 A3025 RMK A01 T11021211  RH  040%=      5-min Rain = 0
KFL1 011212Z 04007KT M11/M21 A3025 RMK A01 T11061214  RH  041%=      5-min Rain = 0
KFL1 011213Z 04006KT M12/M22 A3025 RMK A01 T11181220  RH  043%=      5-min Rain = 0
KFL1 011214Z 04007KT M13/M22 A3025 RMK A01 T11261221  RH  045%=      5-min Rain = 0
KFL1 011215Z 04006KT M14/M23 A3025 RMK A01 T11431231  RH  047%=      5-min Rain = 0
KFL1 011216Z 03007KT M15/M23 A3025 RMK A01 T11501230  RH  050%=      5-min Rain = 0
KFL1 011217Z 04007KT M15/M22 A3025 RMK A01 T11511224  RH  054%=      5-min Rain = 0
KFL1 011218Z 03006KT M15/M22 A3025 RMK A01 T11521220  RH  056%=      5-min Rain = 0
KFL1 011219Z 03007KT M15/M22 A3025 RMK A01 T11491215  RH  057%=      5-min Rain = 0
KFL1 011220Z 03006KT M15/M21 A3025 RMK A01 T11481212  RH  058%=      5-min Rain = 0
KFL1 011221Z 03006KT M15/M21 A3025 RMK A01 T11461210  RH  058%=      5-min Rain = 0
KFL1 011222Z 03006KT M15/M21 A3025 RMK A01 T11471211  RH  058%=      5-min Rain = 0
KFL1 011223Z 03006KT M15/M21 A3025 RMK A01 T11471211  RH  058%=      5-min Rain = 0
KFL1 011224Z 04006KT M14/M21 A3025 RMK A01 T11431210  RH  057%=      5-min Rain = 0
KFL1 011225Z 04005KT M14/M21 A3025 RMK A01 T11411210  RH  056%=      5-min Rain = 0
KFL1 011226Z 04005KT M14/M21 A3025 RMK A01 T11351208  RH  054%=      5-min Rain = 0
KFL1 011227Z 04006KT M13/M21 A3025 RMK A01 T11301208  RH  052%=      5-min Rain = 0
KFL1 011228Z 04006KT M13/M21 A3025 RMK A01 T11261209  RH  050%=      5-min Rain = 0
KFL1 011229Z 04007KT M12/M21 A3025 RMK A01 T11231208  RH  049%=      5-min Rain = 0
KFL1 011230Z 04006KT M12/M21 A3025 RMK A01 T11231210  RH  048%=      5-min Rain = 0
KFL1 011231Z 04007KT M12/M21 A3025 RMK A01 T11211209  RH  048%=      5-min Rain = 0
KFL1 011232Z 04007KT M12/M21 A3025 RMK A01 T11221211  RH  047%=      5-min Rain = 0
KFL1 011233Z 04008KT M12/M21 A3025 RMK A01 T11211211  RH  047%=      5-min Rain = 0
KFL1 011234Z 04008KT M12/M21 A3025 RMK A01 T11181209  RH  047%=      5-min Rain = 0
KFL1 011235Z 04008KT M12/M21 A3025 RMK A01 T11191210  RH  047%=      5-min Rain = 0
KFL1 011236Z 04008KT M12/M21 A3025 RMK A01 T11191211  RH  046%=      5-min Rain = 0
KFL1 011237Z 04008KT M12/M21 A3026 RMK A01 T11181209  RH  047%=      5-min Rain = 0
KFL1 011238Z 04008KT M12/M21 A3026 RMK A01 T11191211  RH  046%=      5-min Rain = 0
KFL1 011239Z 04008KT M12/M21 A3026 RMK A01 T11151209  RH  046%=      5-min Rain = 0
KFL1 011240Z 04008KT M11/M21 A3026 RMK A01 T11121209  RH  045%=      5-min Rain = 0
KFL1 011241Z 04007KT M11/M21 A3026 RMK A01 T11071207  RH  044%=      5-min Rain = 0
KFL1 011242Z 03006KT M11/M21 A3026 RMK A01 T11061209  RH  043%=      5-min Rain = 0
KFL1 011243Z 04006KT M11/M21 A3026 RMK A01 T11101212  RH  043%=      5-min Rain = 0
KFL1 011244Z 04006KT M11/M21 A3026 RMK A01 T11121213  RH  043%=      5-min Rain = 0
KFL1 011245Z 04006KT M11/M21 A3026 RMK A01 T11081211  RH  042%=      5-min Rain = 0
KFL1 011246Z 04006KT M11/M21 A3026 RMK A01 T11061212  RH  041%=      5-min Rain = 0
KFL1 011247Z 04006KT M10/M21 A3026 RMK A01 T11011211  RH  040%=      5-min Rain = 0
KFL1 011248Z 04006KT M10/M21 A3026 RMK A01 T10991212  RH  039%=      5-min Rain = 0
KFL1 011249Z 03006KT M10/M21 A3026 RMK A01 T10971213  RH  038%=      5-min Rain = 0
KFL1 011250Z 04006KT M09/M21 A3026 RMK A01 T10941212  RH  038%=      5-min Rain = 0
KFL1 011251Z 04007KT M09/M21 A3026 RMK A01 T10931214  RH  037%=      5-min Rain = 0
KFL1 011252Z 04007KT M09/M21 A3026 RMK A01 T10911213  RH  036%=      5-min Rain = 0
KFL1 011253Z 04007KT M09/M22 A3026 RMK A01 T10921215  RH  036%=      5-min Rain = 0
KFL1 011254Z 04005KT M09/M21 A3026 RMK A01 T10921214  RH  036%=      5-min Rain = 0
KFL1 011255Z 04005KT M09/M21 A3026 RMK A01 T10941213  RH  037%=      5-min Rain = 0
KFL1 011256Z 04005KT M10/M21 A3026 RMK A01 T10951212  RH  038%=      5-min Rain = 0
KFL1 011257Z 04006KT M10/M21 A3026 RMK A01 T10981214  RH  038%=      5-min Rain = 0
KFL1 011258Z 03005KT M10/M21 A3026 RMK A01 T11001214  RH  039%=      5-min Rain = 0
KFL1 011259Z 05004KT M10/M21 A3026 RMK A01 T11011212  RH  040%=      5-min Rain = 0
KFL1 011300Z 04005KT M11/M21 A3026 RMK A01 T11051212  RH  041%=      5-min Rain = 0
KFL1 011301Z 04006KT M11/M21 A3026 RMK A01 T11081212  RH  042%=      5-min Rain = 0
KFL1 011302Z 04005KT M11/M21 A3026 RMK A01 T11121213  RH  043%=      5-min Rain = 0
KFL1 011303Z 04006KT M11/M21 A3026 RMK A01 T11131213  RH  044%=      5-min Rain = 0
KFL1 011304Z 04007KT M12/M21 A3026 RMK A01 T11161214  RH  044%=      5-min Rain = 0
KFL1 011305Z 04007KT M12/M21 A3026 RMK A01 T11181213  RH  045%=      5-min Rain = 0
KFL1 011306Z 04006KT M12/M21 A3026 RMK A01 T11191213  RH  045%=      5-min Rain = 0
KFL1 011307Z 04005KT M13/M22 A3026 RMK A01 T11261219  RH  046%=      5-min Rain = 0
KFL1 011308Z 03005KT M13/M22 A3026 RMK A01 T11341223  RH  047%=      5-min Rain = 0
KFL1 011309Z 04006KT M14/M22 A3026 RMK A01 T11381221  RH  049%=      5-min Rain = 0
KFL1 011310Z 04007KT M14/M22 A3026 RMK A01 T11381219  RH  051%=      5-min Rain = 0
KFL1 011311Z 04006KT M13/M21 A3027 RMK A01 T11331213  RH  051%=      5-min Rain = 0
KFL1 011312Z 04005KT M13/M21 A3027 RMK A01 T11301210  RH  051%=      5-min Rain = 0
KFL1 011313Z 04005KT M13/M21 A3027 RMK A01 T11271209  RH  051%=      5-min Rain = 0
KFL1 011314Z 04005KT M13/M21 A3027 RMK A01 T11261209  RH  050%=      5-min Rain = 0
KFL1 011315Z 04006KT M13/M21 A3027 RMK A01 T11261209  RH  050%=      5-min Rain = 0
KFL1 011316Z 04007KT M12/M21 A3027 RMK A01 T11241208  RH  049%=      5-min Rain = 0
KFL1 011317Z 04007KT M12/M21 A3027 RMK A01 T11231210  RH  049%=      5-min Rain = 0
KFL1 011318Z 04007KT M12/M21 A3027 RMK A01 T11211210  RH  048%=      5-min Rain = 0
KFL1 011319Z 04007KT M12/M21 A3027 RMK A01 T11181210  RH  046%=      5-min Rain = 0
KFL1 011320Z 04007KT M12/M21 A3027 RMK A01 T11161211  RH  045%=      5-min Rain = 0
KFL1 011321Z 04007KT M11/M21 A3027 RMK A01 T11111209  RH  044%=      5-min Rain = 0
KFL1 011322Z 04006KT M11/M21 A3027 RMK A01 T11081211  RH  042%=      5-min Rain = 0
KFL1 011323Z 04006KT M11/M21 A3027 RMK A01 T11081212  RH  042%=      5-min Rain = 0
KFL1 011324Z 04005KT M13/M23 A3027 RMK A01 T11251227  RH  042%=      5-min Rain = 0
KFL1 011325Z 03005KT M14/M24 A3027 RMK A01 T11411237  RH  044%=      5-min Rain = 0
KFL1 011326Z 04005KT M15/M24 A3027 RMK A01 T11521239  RH  048%=      5-min Rain = 0
KFL1 011327Z 04005KT M16/M24 A3027 RMK A01 T11581236  RH  051%=      5-min Rain = 0
KFL1 011328Z 04004KT M16/M23 A3027 RMK A01 T11581230  RH  054%=      5-min Rain = 0
KFL1 011329Z 05004KT M15/M22 A3027 RMK A01 T11541224  RH  055%=      5-min Rain = 0
KFL1 011330Z 05004KT M15/M22 A3027 RMK A01 T11481218  RH  055%=      5-min Rain = 0
KFL1 011331Z 04004KT M14/M21 A3027 RMK A01 T11411214  RH  054%=      5-min Rain = 0
KFL1 011332Z 04004KT M14/M21 A3027 RMK A01 T11381214  RH  053%=      5-min Rain = 0
KFL1 011333Z 04005KT M14/M21 A3027 RMK A01 T11361213  RH  052%=      5-min Rain = 0
KFL1 011334Z 04005KT M14/M21 A3027 RMK A01 T11351213  RH  052%=      5-min Rain = 0
KFL1 011335Z 04004KT M13/M21 A3027 RMK A01 T11341214  RH  051%=      5-min Rain = 0
KFL1 011336Z 04004KT M14/M22 A3027 RMK A01 T11361216  RH  051%=      5-min Rain = 0
KFL1 011337Z 04005KT M14/M22 A3027 RMK A01 T11421222  RH  051%=      5-min Rain = 0
KFL1 011338Z 04005KT M15/M23 A3028 RMK A01 T11481226  RH  051%=      5-min Rain = 0
KFL1 011339Z 04004KT M16/M23 A3028 RMK A01 T11561231  RH  052%=      5-min Rain = 0
KFL1 011340Z 05004KT M16/M23 A3028 RMK A01 T11611233  RH  054%=      5-min Rain = 0
KFL1 011341Z 05004KT M16/M23 A3028 RMK A01 T11641231  RH  056%=      5-min Rain = 0
KFL1 011342Z 05004KT M17/M23 A3028 RMK A01 T11681232  RH  058%=      5-min Rain = 0
KFL1 011343Z 05004KT M16/M23 A3028 RMK A01 T11641225  RH  059%=      5-min Rain = 0
KFL1 011344Z 05005KT M16/M22 A3028 RMK A01 T11601221  RH  059%=      5-min Rain = 0
KFL1 011345Z 05005KT M16/M22 A3028 RMK A01 T11561218  RH  059%=      5-min Rain = 0
KFL1 011346Z 05005KT M15/M21 A3028 RMK A01 T11491214  RH  058%=      5-min Rain = 0
KFL1 011347Z 05005KT M15/M21 A3028 RMK A01 T11451213  RH  057%=      5-min Rain = 0
KFL1 011348Z 05006KT M14/M21 A3028 RMK A01 T11401211  RH  055%=      5-min Rain = 0
KFL1 011349Z 05006KT M13/M21 A3028 RMK A01 T11331208  RH  054%=      5-min Rain = 0
KFL1 011350Z 05006KT M13/M21 A3028 RMK A01 T11321209  RH  052%=      5-min Rain = 0
KFL1 011351Z 05005KT M13/M21 A3028 RMK A01 T11301208  RH  052%=      5-min Rain = 0
KFL1 011352Z 05005KT M13/M21 A3028 RMK A01 T11281210  RH  050%=      5-min Rain = 0
KFL1 011353Z 06005KT M12/M21 A3028 RMK A01 T11241209  RH  049%=      5-min Rain = 0
KFL1 011354Z 05005KT M12/M21 A3028 RMK A01 T11241211  RH  049%=      5-min Rain = 0
KFL1 011355Z 05005KT M12/M21 A3028 RMK A01 T11231211  RH  048%=      5-min Rain = 0
KFL1 011356Z 05005KT M12/M21 A3028 RMK A01 T11201210  RH  047%=      5-min Rain = 0
KFL1 011357Z 05005KT M12/M21 A3028 RMK A01 T11181211  RH  046%=      5-min Rain = 0
KFL1 011358Z 05005KT M12/M21 A3028 RMK A01 T11161212  RH  045%=      5-min Rain = 0
KFL1 011359Z 05005KT M11/M21 A3029 RMK A01 T11121210  RH  044%=      5-min Rain = 0
KFL1 011400Z 04005KT M11/M21 A3029 RMK A01 T11111211  RH  043%=      5-min Rain = 0
KFL1 011401Z 05004KT M11/M21 A3029 RMK A01 T11081211  RH  043%=      5-min Rain = 0
KFL1 011402Z 05004KT M11/M21 A3029 RMK A01 T11071211  RH  042%=      5-min Rain = 0
KFL1 011403Z 05004KT M10/M21 A3029 RMK A01 T11041211  RH  041%=      5-min Rain = 0
KFL1 011404Z 05004KT M10/M21 A3029 RMK A01 T11021212  RH  040%=      5-min Rain = 0
KFL1 011405Z 05004KT M10/M22 A3029 RMK A01 T11031215  RH  040%=      5-min Rain = 0
KFL1 011406Z 05003KT M11/M22 A3029 RMK A01 T11071218  RH  040%=      5-min Rain = 0
KFL1 011407Z 05004KT M11/M22 A3029 RMK A01 T11101220  RH  040%=      5-min Rain = 0
KFL1 011408Z 05004KT M12/M22 A3029 RMK A01 T11151224  RH  040%=      5-min Rain = 0
KFL1 011409Z 04004KT M12/M22 A3029 RMK A01 T11161221  RH  041%=      5-min Rain = 0
KFL1 011410Z 04004KT M12/M22 A3029 RMK A01 T11161219  RH  042%=      5-min Rain = 0
KFL1 011411Z 05005KT M11/M21 A3029 RMK A01 T11121214  RH  042%=      5-min Rain = 0
KFL1 011412Z 05004KT M11/M21 A3029 RMK A01 T11101212  RH  043%=      5-min Rain = 0
KFL1 011413Z 05005KT M10/M21 A3029 RMK A01 T11041207  RH  043%=      5-min Rain = 0
KFL1 011414Z 04005KT M10/M21 A3029 RMK A01 T11011206  RH  042%=      5-min Rain = 0
KFL1 011415Z 04004KT M10/M21 A3029 RMK A01 T10991206  RH  041%=      5-min Rain = 0
KFL1 011416Z 04005KT M10/M21 A3029 RMK A01 T10971205  RH  041%=      5-min Rain = 0
KFL1 011417Z 04004KT M10/M21 A3029 RMK A01 T10951205  RH  040%=      5-min Rain = 0
KFL1 011418Z 05004KT M10/M21 A303 RMK A01 T10961206  RH  040%=      5-min Rain = 0
KFL1 011419Z 04004KT M09/M21 A303 RMK A01 T10941205  RH  040%=      5-min Rain = 0
KFL1 011420Z 04004KT M09/M21 A303 RMK A01 T10921206  RH  039%=      5-min Rain = 0
KFL1 011421Z 05004KT M09/M21 A303 RMK A01 T10911206  RH  039%=      5-min Rain = 0
KFL1 011422Z 04004KT M09/M21 A303 RMK A01 T10881206  RH  038%=      5-min Rain = 0
KFL1 011423Z 05004KT M09/M21 A303 RMK A01 T10861207  RH  037%=      5-min Rain = 0
KFL1 011424Z 05004KT M08/M21 A303 RMK A01 T10831208  RH  036%=      5-min Rain = 0
KFL1 011425Z 05005KT M08/M21 A303 RMK A01 T10841210  RH  035%=      5-min Rain = 0
KFL1 011426Z 04004KT M08/M21 A303 RMK A01 T10831209  RH  035%=      5-min Rain = 0
KFL1 011427Z 04004KT M08/M21 A303 RMK A01 T10801206  RH  036%=      5-min Rain = 0
KFL1 011428Z 04004KT M08/M21 A303 RMK A01 T10791207  RH  035%=      5-min Rain = 0
KFL1 011429Z 04003KT M08/M21 A303 RMK A01 T10791209  RH  034%=      5-min Rain = 0
KFL1 011430Z 04004KT M08/M21 A303 RMK A01 T10811212  RH  034%=      5-min Rain = 0
KFL1 011431Z 04003KT M08/M21 A303 RMK A01 T10801209  RH  035%=      5-min Rain = 0
KFL1 011432Z 04003KT M08/M21 A303 RMK A01 T10811207  RH  035%=      5-min Rain = 0
KFL1 011433Z 04003KT M08/M21 A303 RMK A01 T10791205  RH  036%=      5-min Rain = 0
KFL1 011434Z 04003KT M08/M20 A303 RMK A01 T10781203  RH  036%=      5-min Rain = 0
KFL1 011435Z 04003KT M08/M20 A303 RMK A01 T10761200  RH  036%=      5-min Rain = 0
KFL1 011436Z 05003KT M08/M20 A303 RMK A01 T10771201  RH  036%=      5-min Rain = 0
KFL1 011437Z 04003KT M08/M20 A303 RMK A01 T10771201  RH  036%=      5-min Rain = 0
KFL1 011438Z 04004KT M08/M20 A303 RMK A01 T10761198  RH  037%=      5-min Rain = 0
KFL1 011439Z 03004KT M08/M20 A303 RMK A01 T10761197  RH  038%=      5-min Rain = 0
KFL1 011440Z 04003KT M08/M20 A303 RMK A01 T10771197  RH  037%=      5-min Rain = 0
KFL1 011441Z 04003KT M07/M20 A303 RMK A01 T10741196  RH  037%=      5-min Rain = 0
KFL1 011442Z 04003KT M07/M20 A303 RMK A01 T10741196  RH  037%=      5-min Rain = 0
KFL1 011443Z 04003KT M07/M20 A303 RMK A01 T10721197  RH  036%=      5-min Rain = 0
KFL1 011444Z 04003KT M07/M20 A303 RMK A01 T10711200  RH  035%=      5-min Rain = 0
KFL1 011445Z 05003KT M07/M20 A303 RMK A01 T10721202  RH  035%=      5-min Rain = 0
KFL1 011446Z 06002KT M07/M20 A3031 RMK A01 T10731204  RH  034%=      5-min Rain = 0
KFL1 011447Z 07002KT M07/M21 A3031 RMK A01 T10731205  RH  034%=      5-min Rain = 0
KFL1 011448Z 05002KT M07/M20 A3031 RMK A01 T10721204  RH  034%=      5-min Rain = 0
KFL1 011449Z 07001KT M07/M20 A3031 RMK A01 T10681202  RH  034%=      5-min Rain = 0
KFL1 011450Z 07002KT M07/M20 A3031 RMK A01 T10671202  RH  033%=      5-min Rain = 0
KFL1 011451Z 06003KT M07/M20 A3031 RMK A01 T10661201  RH  033%=      5-min Rain = 0
KFL1 011452Z 06003KT M06/M20 A3031 RMK A01 T10631197  RH  034%=      5-min Rain = 0
KFL1 011453Z 05003KT M06/M20 A3031 RMK A01 T10621196  RH  034%=      5-min Rain = 0
KFL1 011454Z 05003KT M06/M19 A3031 RMK A01 T10601192  RH  034%=      5-min Rain = 0
KFL1 011455Z 05003KT M06/M19 A3031 RMK A01 T10601194  RH  034%=      5-min Rain = 0
KFL1 011456Z 06003KT M06/M19 A3031 RMK A01 T10581194  RH  033%=      5-min Rain = 0
KFL1 011457Z 06003KT M06/M20 A3031 RMK A01 T10621198  RH  033%=      5-min Rain = 0
KFL1 011458Z 05002KT M06/M20 A3031 RMK A01 T10641196  RH  035%=      5-min Rain = 0
KFL1 011459Z 05003KT M07/M19 A3031 RMK A01 T10651190  RH  036%=      5-min Rain = 0
KFL1 011500Z 05002KT M07/M19 A3031 RMK A01 T10671187  RH  038%=      5-min Rain = 0
KFL1 011501Z 06003KT M07/M19 A3031 RMK A01 T10681188  RH  038%=      5-min Rain = 0
KFL1 011502Z 06002KT M07/M19 A3031 RMK A01 T10651186  RH  038%=      5-min Rain = 0
KFL1 011503Z 08001KT M07/M19 A3031 RMK A01 T10661188  RH  037%=      5-min Rain = 0
KFL1 011504Z 07002KT M07/M19 A3031 RMK A01 T10651187  RH  038%=      5-min Rain = 0
KFL1 011505Z 05002KT M07/M19 A3032 RMK A01 T10661188  RH  037%=      5-min Rain = 0
KFL1 011506Z 05002KT M06/M19 A3032 RMK A01 T10641189  RH  036%=      5-min Rain = 0
KFL1 011507Z 07001KT M07/M19 A3032 RMK A01 T10651192  RH  036%=      5-min Rain = 0
KFL1 011508Z 07001KT M07/M20 A3032 RMK A01 T10651195  RH  035%=      5-min Rain = 0
KFL1 011509Z 07001KT M06/M20 A3032 RMK A01 T10631195  RH  034%=      5-min Rain = 0
KFL1 011510Z 07001KT M07/M20 A3032 RMK A01 T10651196  RH  035%=      5-min Rain = 0
KFL1 011511Z 07001KT M07/M20 A3032 RMK A01 T10661195  RH  035%=      5-min Rain = 0
KFL1 011512Z 07001KT M07/M19 A3032 RMK A01 T10651189  RH  037%=      5-min Rain = 0
KFL1 011513Z 07002KT M06/M19 A3032 RMK A01 T10641189  RH  036%=      5-min Rain = 0
KFL1 011514Z 11000KT M06/M18 A3032 RMK A01 T10591183  RH  037%=      5-min Rain = 0
KFL1 011515Z 07000KT M06/M19 A3032 RMK A01 T10551190  RH  034%=      5-min Rain = 0
KFL1 011516Z 10002KT M05/M19 A3032 RMK A01 T10501188  RH  033%=      5-min Rain = 0
KFL1 011517Z 08002KT M05/M18 A3032 RMK A01 T10471184  RH  033%=      5-min Rain = 0
KFL1 011518Z 07002KT M05/M18 A3032 RMK A01 T10451181  RH  034%=      5-min Rain = 0
KFL1 011519Z 07002KT M04/M18 A3032 RMK A01 T10421180  RH  033%=      5-min Rain = 0
KFL1 011520Z 09001KT M04/M18 A3032 RMK A01 T10421180  RH  033%=      5-min Rain = 0
KFL1 011521Z 08002KT M04/M18 A3032 RMK A01 T10401175  RH  034%=      5-min Rain = 0
KFL1 011522Z 07001KT M04/M18 A3032 RMK A01 T10411183  RH  032%=      5-min Rain = 0
KFL1 011523Z 07002KT M04/M19 A3032 RMK A01 T10401188  RH  031%=      5-min Rain = 0
KFL1 011524Z 06003KT M04/M19 A3032 RMK A01 T10411191  RH  030%=      5-min Rain = 0
KFL1 011525Z 06002KT M04/M19 A3032 RMK A01 T10421192  RH  030%=      5-min Rain = 0
KFL1 011526Z 07002KT M04/M19 A3032 RMK A01 T10401191  RH  030%=      5-min Rain = 0
KFL1 011527Z 07002KT M04/M20 A3032 RMK A01 T10421197  RH  029%=      5-min Rain = 0
KFL1 011528Z 08001KT M04/M20 A3032 RMK A01 T10411201  RH  028%=      5-min Rain = 0
KFL1 011529Z 11001KT M04/M20 A3032 RMK A01 T10411202  RH  027%=      5-min Rain = 0
KFL1 011530Z 09001KT M04/M21 A3032 RMK A01 T10411206  RH  026%=      5-min Rain = 0
KFL1 011531Z 09001KT M04/M21 A3032 RMK A01 T10401205  RH  026%=      5-min Rain = 0
KFL1 011532Z 09001KT M04/M21 A3032 RMK A01 T10401209  RH  026%=      5-min Rain = 0
KFL1 011533Z 10002KT M04/M20 A3032 RMK A01 T10391204  RH  027%=      5-min Rain = 0
KFL1 011534Z 09002KT M04/M20 A3032 RMK A01 T10371199  RH  027%=      5-min Rain = 0
KFL1 011535Z 09002KT M03/M19 A3032 RMK A01 T10341191  RH  029%=      5-min Rain = 0
KFL1 011536Z 09002KT M03/M19 A3032 RMK A01 T10301193  RH  027%=      5-min Rain = 0
KFL1 011537Z 09002KT M03/M20 A3032 RMK A01 T10291198  RH  026%=      5-min Rain = 0
KFL1 011538Z 09002KT M03/M20 A3032 RMK A01 T10291198  RH  026%=      5-min Rain = 0
KFL1 011539Z 10002KT M03/M20 A3032 RMK A01 T10281195  RH  026%=      5-min Rain = 0
KFL1 011540Z 09001KT M03/M19 A3032 RMK A01 T10271194  RH  026%=      5-min Rain = 0
KFL1 011541Z 09002KT M03/M20 A3032 RMK A01 T10271198  RH  025%=      5-min Rain = 0
KFL1 011542Z 10002KT M03/M20 A3032 RMK A01 T10281203  RH  025%=      5-min Rain = 0
KFL1 011543Z 11002KT M03/M21 A3032 RMK A01 T10281205  RH  024%=      5-min Rain = 0
KFL1 011544Z 14003KT M03/M20 A3032 RMK A01 T10261197  RH  026%=      5-min Rain = 0
KFL1 011545Z 12003KT M03/M20 A3032 RMK A01 T10251199  RH  025%=      5-min Rain = 0
KFL1 011546Z 13003KT M03/M20 A3032 RMK A01 T10251204  RH  024%=      5-min Rain = 0
KFL1 011547Z 11004KT M02/M20 A3032 RMK A01 T10241204  RH  024%=      5-min Rain = 0
KFL1 011548Z 09003KT M02/M21 A3032 RMK A01 T10231207  RH  023%=      5-min Rain = 0
KFL1 011549Z 09003KT M02/M20 A3033 RMK A01 T10231202  RH  024%=      5-min Rain = 0
KFL1 011550Z 07004KT M02/M19 A3033 RMK A01 T10221186  RH  027%=      5-min Rain = 0
KFL1 011551Z 05002KT M02/M19 A3033 RMK A01 T10191193  RH  025%=      5-min Rain = 0
KFL1 011552Z 08003KT M02/M19 A3033 RMK A01 T10191194  RH  025%=      5-min Rain = 0
KFL1 011553Z 09003KT M02/M20 A3033 RMK A01 T10191195  RH  025%=      5-min Rain = 0
KFL1 011554Z 10003KT M02/M20 A3033 RMK A01 T10191200  RH  024%=      5-min Rain = 0
KFL1 011555Z 09003KT M02/M20 A3033 RMK A01 T10191197  RH  024%=      5-min Rain = 0
KFL1 011556Z 08003KT M02/M20 A3033 RMK A01 T10191198  RH  024%=      5-min Rain = 0
KFL1 011557Z 09002KT M02/M20 A3033 RMK A01 T10151199  RH  023%=      5-min Rain = 0
KFL1 011558Z 10003KT M01/M19 A3033 RMK A01 T10141190  RH  025%=      5-min Rain = 0
KFL1 011559Z 10003KT M01/M19 A3033 RMK A01 T10141191  RH  025%=      5-min Rain = 0
KFL1 011600Z 10004KT M02/M19 A3033 RMK A01 T10151185  RH  026%=      5-min Rain = 0
KFL1 011601Z 10003KT M02/M19 A3033 RMK A01 T10151188  RH  026%=      5-min Rain = 0
KFL1 011602Z 10004KT M02/M19 A3033 RMK A01 T10161192  RH  025%=      5-min Rain = 0
KFL1 011603Z 10005KT M02/M19 A3033 RMK A01 T10171185  RH  027%=      5-min Rain = 0
KFL1 011604Z 11004KT M02/M19 A3033 RMK A01 T10191191  RH  025%=      5-min Rain = 0
KFL1 011605Z 09003KT M02/M19 A3033 RMK A01 T10181188  RH  026%=      5-min Rain = 0
KFL1 011606Z 09003KT M02/M17 A3033 RMK A01 T10181173  RH  029%=      5-min Rain = 0
KFL1 011607Z 11004KT M02/M18 A3033 RMK A01 T10171183  RH  027%=      5-min Rain = 0
KFL1 011608Z 10005KT M02/M20 A3033 RMK A01 T10181198  RH  024%=      5-min Rain = 0
KFL1 011609Z 10004KT M02/M20 A3033 RMK A01 T10191197  RH  024%=      5-min Rain = 0
KFL1 011610Z 10005KT M02/M19 A3033 RMK A01 T10191193  RH  025%=      5-min Rain = 0
KFL1 011611Z 09006KT M02/M19 A3033 RMK A01 T10161185  RH  026%=      5-min Rain = 0
KFL1 011612Z 09005KT M02/M19 A3033 RMK A01 T10161189  RH  025%=      5-min Rain = 0
KFL1 011613Z 08005KT M02/M19 A3034 RMK A01 T10171189  RH  025%=      5-min Rain = 0
KFL1 011614Z 09005KT M02/M19 A3034 RMK A01 T10161188  RH  026%=      5-min Rain = 0
KFL1 011615Z 12003KT M02/M19 A3034 RMK A01 T10161190  RH  025%=      5-min Rain = 0
KFL1 011616Z 11003KT M02/M20 A3034 RMK A01 T10171197  RH  024%=      5-min Rain = 0
KFL1 011617Z 10003KT M02/M20 A3034 RMK A01 T10181199  RH  024%=      5-min Rain = 0
KFL1 011618Z 12003KT M02/M19 A3034 RMK A01 T10171192  RH  025%=      5-min Rain = 0
KFL1 011619Z 11002KT M01/M19 A3034 RMK A01 T10141189  RH  025%=      5-min Rain = 0
KFL1 011620Z 09003KT M01/M18 A3034 RMK A01 T10141178  RH  027%=      5-min Rain = 0
KFL1 011621Z 11006KT M01/M19 A3034 RMK A01 T10141187  RH  026%=      5-min Rain = 0
KFL1 011622Z 11005KT M01/M18 A3034 RMK A01 T10121183  RH  026%=      5-min Rain = 0
KFL1 011623Z 12005KT M01/M19 A3034 RMK A01 T10121186  RH  025%=      5-min Rain = 0
KFL1 011624Z 12004KT M01/M19 A3034 RMK A01 T10131185  RH  026%=      5-min Rain = 0
KFL1 011625Z 11006KT M01/M19 A3034 RMK A01 T10141186  RH  026%=      5-min Rain = 0
KFL1 011626Z 10006KT M01/M18 A3034 RMK A01 T10131175  RH  028%=      5-min Rain = 0
KFL1 011627Z 10005KT M01/M18 A3034 RMK A01 T10101182  RH  026%=      5-min Rain = 0
KFL1 011628Z 11005KT M01/M18 A3034 RMK A01 T10101180  RH  026%=      5-min Rain = 0
KFL1 011629Z 11005KT M01/M19 A3034 RMK A01 T10111186  RH  025%=      5-min Rain = 0
KFL1 011630Z 12005KT M01/M18 A3034 RMK A01 T10121184  RH  026%=      5-min Rain = 0
KFL1 011631Z 11005KT M01/M18 A3034 RMK A01 T10121182  RH  026%=      5-min Rain = 0
KFL1 011632Z 11005KT M01/M19 A3034 RMK A01 T10121193  RH  024%=      5-min Rain = 0
KFL1 011633Z 12005KT M01/M19 A3034 RMK A01 T10141193  RH  024%=      5-min Rain = 0
KFL1 011634Z 12005KT M01/M20 A3035 RMK A01 T10141195  RH  024%=      5-min Rain = 0
KFL1 011635Z 11005KT M02/M19 A3035 RMK A01 T10151192  RH  025%=      5-min Rain = 0
KFL1 011636Z 12006KT M01/M18 A3035 RMK A01 T10141177  RH  028%=      5-min Rain = 0
KFL1 011637Z 12005KT M01/M18 A3035 RMK A01 T10111178  RH  027%=      5-min Rain = 0
KFL1 011638Z 12005KT M01/M19 A3035 RMK A01 T10141194  RH  024%=      5-min Rain = 0
KFL1 011639Z 12005KT M02/M19 A3035 RMK A01 T10151193  RH  024%=      5-min Rain = 0
KFL1 011640Z 12005KT M01/M17 A3035 RMK A01 T10111172  RH  028%=      5-min Rain = 0
KFL1 011641Z 10005KT M01/M18 A3035 RMK A01 T10101175  RH  027%=      5-min Rain = 0
KFL1 011642Z 09004KT M01/M17 A3035 RMK A01 T10081173  RH  027%=      5-min Rain = 0
KFL1 011643Z 13003KT M01/M18 A3035 RMK A01 T10061177  RH  026%=      5-min Rain = 0
KFL1 011644Z 13004KT M00/M19 A3035 RMK A01 T10041185  RH  024%=      5-min Rain = 0
KFL1 011645Z 12005KT M01/M18 A3035 RMK A01 T10061176  RH  026%=      5-min Rain = 0
KFL1 011646Z 11004KT M01/M18 A3035 RMK A01 T10061176  RH  027%=      5-min Rain = 0
KFL1 011647Z 10004KT M01/M18 A3035 RMK A01 T10061179  RH  026%=      5-min Rain = 0
KFL1 011648Z 11004KT M01/M18 A3035 RMK A01 T10061175  RH  026%=      5-min Rain = 0
KFL1 011649Z 10005KT M01/M18 A3035 RMK A01 T10061179  RH  026%=      5-min Rain = 0
KFL1 011650Z 11005KT M01/M18 A3035 RMK A01 T10061180  RH  025%=      5-min Rain = 0
KFL1 011651Z 09004KT M01/M19 A3035 RMK A01 T10051188  RH  024%=      5-min Rain = 0
KFL1 011652Z 09003KT M01/M18 A3035 RMK A01 T10061181  RH  025%=      5-min Rain = 0
KFL1 011653Z 10005KT M01/M18 A3035 RMK A01 T10061183  RH  025%=      5-min Rain = 0
KFL1 011654Z 10004KT M01/M19 A3035 RMK A01 T10051186  RH  024%=      5-min Rain = 0
KFL1 011655Z 09004KT M00/M17 A3035 RMK A01 T10011174  RH  026%=      5-min Rain = 0
KFL1 011656Z 10003KT M00/M16 A3035 RMK A01 T10011164  RH  028%=      5-min Rain = 0
KFL1 011657Z 11005KT 00/17 A3035 RMK A01 T00-00-173  RH  026%=      5-min Rain = 0
KFL1 011658Z 09003KT 00/M17 A3035 RMK A01 T00011171  RH  026%=      5-min Rain = 0
KFL1 011659Z 10004KT 00/M18 A3035 RMK A01 T00011180  RH  024%=      5-min Rain = 0
KFL1 011700Z 08007KT 00/M18 A3035 RMK A01 T00011177  RH  025%=      5-min Rain = 0
KFL1 011701Z 10005KT 00/M17 A3035 RMK A01 T00031166  RH  027%=      5-min Rain = 0
KFL1 011702Z 12003KT 00/M17 A3035 RMK A01 T00021167  RH  027%=      5-min Rain = 0
KFL1 011703Z 12004KT 00/M18 A3035 RMK A01 T00011178  RH  025%=      5-min Rain = 0
KFL1 011704Z 13004KT M00/M19 A3035 RMK A01 T10011186  RH  023%=      5-min Rain = 0
KFL1 011705Z 11004KT M00/M19 A3035 RMK A01 T10011185  RH  024%=      5-min Rain = 0
KFL1 011706Z 12004KT M00/M18 A3035 RMK A01 T10021184  RH  024%=      5-min Rain = 0
KFL1 011707Z 13004KT M00/M18 A3035 RMK A01 T10041183  RH  024%=      5-min Rain = 0
KFL1 011708Z 11005KT M00/M18 A3035 RMK A01 T10031177  RH  026%=      5-min Rain = 0
KFL1 011709Z 11005KT M00/M17 A3035 RMK A01 T10011168  RH  027%=      5-min Rain = 0
KFL1 011710Z 12004KT M00/M18 A3035 RMK A01 T10011177  RH  025%=      5-min Rain = 0
KFL1 011711Z 15004KT M00/M19 A3035 RMK A01 T10031186  RH  024%=      5-min Rain = 0
KFL1 011712Z 13005KT M00/M18 A3035 RMK A01 T10031177  RH  026%=      5-min Rain = 0
KFL1 011713Z 13005KT M00/M17 A3035 RMK A01 T10021173  RH  026%=      5-min Rain = 0
KFL1 011714Z 14005KT M00/M17 A3036 RMK A01 T10031172  RH  027%=      5-min Rain = 0
KFL1 011715Z 13004KT M00/M18 A3036 RMK A01 T10031184  RH  024%=      5-min Rain = 0
KFL1 011716Z 13004KT M01/M19 A3036 RMK A01 T10051191  RH  023%=      5-min Rain = 0
KFL1 011717Z 11004KT M00/M18 A3036 RMK A01 T10031181  RH  025%=      5-min Rain = 0
KFL1 011718Z 15005KT M00/M19 A3036 RMK A01 T10011185  RH  024%=      5-min Rain = 0
KFL1 011719Z 11004KT M00/M19 A3036 RMK A01 T10021185  RH  024%=      5-min Rain = 0
KFL1 011720Z 11004KT M00/M18 A3036 RMK A01 T10021178  RH  025%=      5-min Rain = 0
KFL1 011721Z 12004KT M00/M18 A3036 RMK A01 T10021182  RH  024%=      5-min Rain = 0
KFL1 011722Z 12003KT M00/M19 A3036 RMK A01 T10011187  RH  023%=      5-min Rain = 0
KFL1 011723Z 09002KT M00/M19 A3036 RMK A01 T10011188  RH  023%=      5-min Rain = 0
KFL1 011724Z 09002KT 00/19 A3036 RMK A01 T00-00-187  RH  023%=      5-min Rain = 0
KFL1 011725Z 10002KT M00/M20 A3036 RMK A01 T10021196  RH  022%=      5-min Rain = 0
KFL1 011726Z 08003KT M01/M20 A3036 RMK A01 T10051196  RH  022%=      5-min Rain = 0
KFL1 011727Z 08003KT M01/M19 A3036 RMK A01 T10051192  RH  023%=      5-min Rain = 0
KFL1 011728Z 09002KT M01/M20 A3036 RMK A01 T10061195  RH  022%=      5-min Rain = 0
KFL1 011729Z 08002KT M01/M19 A3036 RMK A01 T10051189  RH  024%=      5-min Rain = 0
KFL1 011730Z 09003KT M00/M18 A3036 RMK A01 T10041178  RH  025%=      5-min Rain = 0
KFL1 011731Z 08003KT M00/M19 A3036 RMK A01 T10041191  RH  023%=      5-min Rain = 0
KFL1 011732Z 08002KT M00/M19 A3036 RMK A01 T10041193  RH  023%=      5-min Rain = 0
KFL1 011733Z 07001KT M00/M19 A3036 RMK A01 T10041193  RH  022%=      5-min Rain = 0
KFL1 011734Z 03001KT M01/M19 A3036 RMK A01 T10051189  RH  023%=      5-min Rain = 0
KFL1 011735Z 06001KT M00/M18 A3036 RMK A01 T10041180  RH  025%=      5-min Rain = 0
KFL1 011736Z 07000KT 00/19 A3036 RMK A01 T00-00-189  RH  023%=      5-min Rain = 0
KFL1 011737Z 17003KT 00/M19 A3036 RMK A01 T00031189  RH  022%=      5-min Rain = 0
KFL1 011738Z 17004KT 01/M18 A3036 RMK A01 T00081177  RH  024%=      5-min Rain = 0
KFL1 011739Z 19003KT 01/M18 A3036 RMK A01 T00071181  RH  023%=      5-min Rain = 0
KFL1 011740Z 20004KT 01/M19 A3036 RMK A01 T00061185  RH  022%=      5-min Rain = 0
KFL1 011741Z 22002KT 01/M19 A3036 RMK A01 T00061190  RH  021%=      5-min Rain = 0
KFL1 011742Z 21002KT 00/M19 A3036 RMK A01 T00041194  RH  021%=      5-min Rain = 0
KFL1 011743Z 18003KT 00/M18 A3036 RMK A01 T00041181  RH  024%=      5-min Rain = 0
KFL1 011744Z 19004KT 01/M18 A3036 RMK A01 T00071176  RH  024%=      5-min Rain = 0
KFL1 011745Z 18004KT 01/M18 A3036 RMK A01 T00081181  RH  023%=      5-min Rain = 0
KFL1 011746Z 19003KT 01/M19 A3036 RMK A01 T00081192  RH  021%=      5-min Rain = 0
KFL1 011747Z 17004KT 01/M19 A3036 RMK A01 T00081194  RH  020%=      5-min Rain = 0
KFL1 011748Z 18002KT 01/M20 A3036 RMK A01 T00071195  RH  020%=      5-min Rain = 0
KFL1 011749Z 19000KT 01/M20 A3036 RMK A01 T00051200  RH  020%=      5-min Rain = 0
KFL1 011750Z 28001KT 01/M19 A3036 RMK A01 T00051190  RH  022%=      5-min Rain = 0
KFL1 011751Z 24002KT 01/M18 A3036 RMK A01 T00091175  RH  024%=      5-min Rain = 0
KFL1 011752Z 24002KT 01/M17 A3036 RMK A01 T00091171  RH  025%=      5-min Rain = 0
KFL1 011753Z 24003KT 01/M16 A3036 RMK A01 T00111163  RH  026%=      5-min Rain = 0
KFL1 011754Z 24002KT 01/M17 A3036 RMK A01 T00091173  RH  024%=      5-min Rain = 0
KFL1 011755Z 25003KT 01/M18 A3036 RMK A01 T00071184  RH  022%=      5-min Rain = 0
KFL1 011756Z 25003KT 01/M19 A3037 RMK A01 T00061189  RH  022%=      5-min Rain = 0
KFL1 011757Z 22002KT 01/M18 A3037 RMK A01 T00061180  RH  023%=      5-min Rain = 0
KFL1 011758Z 16002KT 01/M18 A3037 RMK A01 T00081176  RH  024%=      5-min Rain = 0
KFL1 011759Z 13001KT 01/M18 A3037 RMK A01 T00111182  RH  022%=      5-min Rain = 0
KFL1 011800Z 14002KT 01/M18 A3037 RMK A01 T00131184  RH  021%=      5-min Rain = 0
KFL1 011801Z 12002KT 01/M18 A3037 RMK A01 T00141181  RH  022%=      5-min Rain = 0
KFL1 011802Z 14000KT 01/M19 A3037 RMK A01 T00131191  RH  020%=      5-min Rain = 0
KFL1 011803Z 12000KT 01/M20 A3037 RMK A01 T00121196  RH  020%=      5-min Rain = 0
KFL1 011804Z 27000KT 02/M19 A3037 RMK A01 T00151190  RH  020%=      5-min Rain = 0
KFL1 011805Z 26000KT 02/M19 A3037 RMK A01 T00161187  RH  020%=      5-min Rain = 0
KFL1 011806Z 32000KT 02/M19 A3037 RMK A01 T00151192  RH  020%=      5-min Rain = 0
KFL1 011807Z 10001KT 01/M19 A3037 RMK A01 T00141191  RH  020%=      5-min Rain = 0
KFL1 011808Z 21001KT 02/M18 A3037 RMK A01 T00171183  RH  021%=      5-min Rain = 0
KFL1 011809Z 23002KT 02/M18 A3037 RMK A01 T00191183  RH  021%=      5-min Rain = 0
KFL1 011810Z 23001KT 02/M18 A3037 RMK A01 T00181176  RH  022%=      5-min Rain = 0
KFL1 011811Z 20001KT 02/M17 A3037 RMK A01 T00181171  RH  023%=      5-min Rain = 0
KFL1 011812Z 17001KT 02/M16 A3037 RMK A01 T00211159  RH  025%=      5-min Rain = 0
KFL1 011813Z 17001KT 03/M15 A3037 RMK A01 T00251154  RH  026%=      5-min Rain = 0
KFL1 011814Z 15001KT 03/M17 A3037 RMK A01 T00271165  RH  023%=      5-min Rain = 0
KFL1 011815Z 20002KT 03/M16 A3037 RMK A01 T00271163  RH  023%=      5-min Rain = 0
KFL1 011816Z 18004KT 02/M16 A3037 RMK A01 T00241162  RH  024%=      5-min Rain = 0
KFL1 011817Z 18004KT 02/M17 A3037 RMK A01 T00221167  RH  023%=      5-min Rain = 0
KFL1 011818Z 19004KT 02/M16 A3037 RMK A01 T00211164  RH  024%=      5-min Rain = 0
KFL1 011819Z 17004KT 02/M16 A3037 RMK A01 T00191159  RH  025%=      5-min Rain = 0
KFL1 011820Z 16002KT 02/M17 A3037 RMK A01 T00191166  RH  024%=      5-min Rain = 0
KFL1 011821Z 17004KT 02/M16 A3037 RMK A01 T00171160  RH  026%=      5-min Rain = 0
KFL1 011822Z 17007KT 02/M15 A3037 RMK A01 T00171150  RH  028%=      5-min Rain = 0
KFL1 011823Z 15005KT 02/M16 A3037 RMK A01 T00191157  RH  026%=      5-min Rain = 0
KFL1 011824Z 20004KT 02/M15 A3037 RMK A01 T00151154  RH  027%=      5-min Rain = 0
KFL1 011825Z 21006KT 01/M14 A3037 RMK A01 T00141139  RH  031%=      5-min Rain = 0
KFL1 011826Z 22005KT 02/M13 A3037 RMK A01 T00151128  RH  034%=      5-min Rain = 0
KFL1 011827Z 19006KT 02/M13 A3037 RMK A01 T00171132  RH  032%=      5-min Rain = 0
KFL1 011828Z 17005KT 02/M15 A3037 RMK A01 T00181147  RH  028%=      5-min Rain = 0
KFL1 011829Z 18004KT 02/M15 A3037 RMK A01 T00201146  RH  028%=      5-min Rain = 0
KFL1 011830Z 20006KT 02/M14 A3037 RMK A01 T00201143  RH  029%=      5-min Rain = 0
KFL1 011831Z 18005KT 02/M15 A3037 RMK A01 T00191151  RH  027%=      5-min Rain = 0
KFL1 011832Z 19004KT 02/M15 A3037 RMK A01 T00201145  RH  028%=      5-min Rain = 0
KFL1 011833Z 20005KT 02/M14 A3037 RMK A01 T00201143  RH  029%=      5-min Rain = 0
KFL1 011834Z 21005KT 02/M15 A3037 RMK A01 T00211152  RH  027%=      5-min Rain = 0
KFL1 011835Z 22002KT 02/M15 A3037 RMK A01 T00201154  RH  026%=      5-min Rain = 0
KFL1 011836Z 21005KT 02/M15 A3037 RMK A01 T00181151  RH  027%=      5-min Rain = 0
KFL1 011837Z 21004KT 02/M15 A3037 RMK A01 T00161151  RH  028%=      5-min Rain = 0
KFL1 011838Z 15002KT 02/M16 A3037 RMK A01 T00161156  RH  027%=      5-min Rain = 0
KFL1 011839Z 21002KT 01/M17 A3037 RMK A01 T00141165  RH  025%=      5-min Rain = 0
KFL1 011840Z 21003KT 01/M16 A3037 RMK A01 T00121162  RH  026%=      5-min Rain = 0
KFL1 011841Z 21005KT 02/M15 A3037 RMK A01 T00151147  RH  029%=      5-min Rain = 0
KFL1 011842Z 21003KT 02/M15 A3037 RMK A01 T00151153  RH  027%=      5-min Rain = 0
KFL1 011843Z 22003KT 02/M16 A3037 RMK A01 T00161159  RH  026%=      5-min Rain = 0
KFL1 011844Z 25002KT 01/M17 A3037 RMK A01 T00131171  RH  024%=      5-min Rain = 0
KFL1 011845Z 23003KT 01/M17 A3037 RMK A01 T00121165  RH  025%=      5-min Rain = 0
KFL1 011846Z 22003KT 01/M15 A3037 RMK A01 T00121150  RH  029%=      5-min Rain = 0
KFL1 011847Z 20005KT 01/M14 A3037 RMK A01 T00121143  RH  030%=      5-min Rain = 0
KFL1 011848Z 21006KT 02/M14 A3037 RMK A01 T00161142  RH  030%=      5-min Rain = 0
KFL1 011849Z 21004KT 02/M14 A3037 RMK A01 T00161142  RH  030%=      5-min Rain = 0
KFL1 011850Z 21005KT 02/M15 A3037 RMK A01 T00151151  RH  028%=      5-min Rain = 0
KFL1 011851Z 20005KT 01/M15 A3037 RMK A01 T00141147  RH  029%=      5-min Rain = 0
KFL1 011852Z 22007KT 02/M14 A3037 RMK A01 T00151142  RH  030%=      5-min Rain = 0
KFL1 011853Z 22006KT 02/M14 A3037 RMK A01 T00151142  RH  030%=      5-min Rain = 0
KFL1 011854Z 22005KT 02/M13 A3037 RMK A01 T00171134  RH  032%=      5-min Rain = 0
KFL1 011855Z 23004KT 02/M14 A3037 RMK A01 T00171142  RH  030%=      5-min Rain = 0
KFL1 011856Z 18005KT 02/M14 A3037 RMK A01 T00161143  RH  030%=      5-min Rain = 0
KFL1 011857Z 17005KT 02/M15 A3037 RMK A01 T00171147  RH  028%=      5-min Rain = 0
KFL1 011858Z 16004KT 02/M15 A3037 RMK A01 T00171153  RH  027%=      5-min Rain = 0
KFL1 011859Z 17003KT 02/M15 A3037 RMK A01 T00201145  RH  028%=      5-min Rain = 0
KFL1 011900Z 22005KT 02/M15 A3037 RMK A01 T00201150  RH  027%=      5-min Rain = 0
KFL1 011901Z 24004KT 02/M16 A3037 RMK A01 T00191157  RH  026%=      5-min Rain = 0
KFL1 011902Z 27003KT 02/M16 A3037 RMK A01 T00161159  RH  026%=      5-min Rain = 0
KFL1 011903Z 27002KT 02/M16 A3037 RMK A01 T00161157  RH  026%=      5-min Rain = 0
KFL1 011904Z 24003KT 02/M16 A3037 RMK A01 T00151157  RH  027%=      5-min Rain = 0
KFL1 011905Z 22006KT 02/M15 A3037 RMK A01 T00171149  RH  028%=      5-min Rain = 0
KFL1 011906Z 21004KT 02/M15 A3037 RMK A01 T00161149  RH  028%=      5-min Rain = 0
KFL1 011907Z 22004KT 02/M16 A3037 RMK A01 T00161161  RH  026%=      5-min Rain = 0
KFL1 011908Z 26003KT 01/M17 A3037 RMK A01 T00141167  RH  024%=      5-min Rain = 0
KFL1 011909Z 23004KT 01/M16 A3037 RMK A01 T00111164  RH  026%=      5-min Rain = 0
KFL1 011910Z 21004KT 01/M15 A3037 RMK A01 T00111152  RH  028%=      5-min Rain = 0
KFL1 011911Z 19006KT 02/M14 A3037 RMK A01 T00151144  RH  030%=      5-min Rain = 0
KFL1 011912Z 21004KT 02/M15 A3037 RMK A01 T00191146  RH  028%=      5-min Rain = 0
KFL1 011913Z 22004KT 02/M15 A3037 RMK A01 T00211152  RH  026%=      5-min Rain = 0
KFL1 011914Z 24003KT 02/M15 A3037 RMK A01 T00201152  RH  027%=      5-min Rain = 0
KFL1 011915Z 20004KT 02/M15 A3037 RMK A01 T00191148  RH  028%=      5-min Rain = 0
KFL1 011916Z 23001KT 02/M16 A3037 RMK A01 T00201156  RH  026%=      5-min Rain = 0
KFL1 011917Z 21002KT 02/M16 A3037 RMK A01 T00201158  RH  025%=      5-min Rain = 0
KFL1 011918Z 20002KT 02/M16 A3037 RMK A01 T00211155  RH  026%=      5-min Rain = 0
KFL1 011919Z 16002KT 02/M15 A3037 RMK A01 T00211153  RH  026%=      5-min Rain = 0
KFL1 011920Z 16004KT 02/M15 A3037 RMK A01 T00231150  RH  027%=      5-min Rain = 0
KFL1 011921Z 16005KT 02/M15 A3037 RMK A01 T00231147  RH  027%=      5-min Rain = 0
KFL1 011922Z 17005KT 03/M15 A3037 RMK A01 T00251145  RH  027%=      5-min Rain = 0
KFL1 011923Z 19004KT 03/M13 A3037 RMK A01 T00271133  RH  030%=      5-min Rain = 0
KFL1 011924Z 19007KT 03/M14 A3037 RMK A01 T00301141  RH  027%=      5-min Rain = 0
KFL1 011925Z 19003KT 03/M16 A3037 RMK A01 T00251155  RH  025%=      5-min Rain = 0
KFL1 011926Z 16003KT 02/M16 A3037 RMK A01 T00231161  RH  024%=      5-min Rain = 0
KFL1 011927Z 17005KT 02/M16 A3037 RMK A01 T00231159  RH  025%=      5-min Rain = 0
KFL1 011928Z 17005KT 02/M15 A3037 RMK A01 T00221151  RH  026%=      5-min Rain = 0
KFL1 011929Z 22004KT 02/M14 A3037 RMK A01 T00231138  RH  029%=      5-min Rain = 0
KFL1 011930Z 23004KT 03/M13 A3037 RMK A01 T00251133  RH  030%=      5-min Rain = 0
KFL1 011931Z 23005KT 02/M12 A3037 RMK A01 T00241124  RH  033%=      5-min Rain = 0
KFL1 011932Z 23003KT 03/M12 A3037 RMK A01 T00251123  RH  033%=      5-min Rain = 0
KFL1 011933Z 19001KT 03/M12 A3036 RMK A01 T00271122  RH  032%=      5-min Rain = 0
KFL1 011934Z 14001KT 03/M14 A3036 RMK A01 T00291138  RH  028%=      5-min Rain = 0
KFL1 011935Z 15004KT 03/M15 A3036 RMK A01 T00271145  RH  027%=      5-min Rain = 0
KFL1 011936Z 14003KT 03/M15 A3036 RMK A01 T00251148  RH  026%=      5-min Rain = 0
KFL1 011937Z 14004KT 02/M15 A3036 RMK A01 T00241152  RH  026%=      5-min Rain = 0
KFL1 011938Z 14004KT 02/M14 A3036 RMK A01 T00231143  RH  028%=      5-min Rain = 0
KFL1 011939Z 17005KT 03/M13 A3036 RMK A01 T00261126  RH  032%=      5-min Rain = 0
KFL1 011940Z 15002KT 03/M15 A3036 RMK A01 T00271148  RH  026%=      5-min Rain = 0
KFL1 011941Z 22004KT 03/M15 A3036 RMK A01 T00271154  RH  025%=      5-min Rain = 0
KFL1 011942Z 20004KT 02/M15 A3036 RMK A01 T00231149  RH  027%=      5-min Rain = 0
KFL1 011943Z 17002KT 03/M14 A3036 RMK A01 T00251137  RH  029%=      5-min Rain = 0
KFL1 011944Z 21003KT 03/M14 A3036 RMK A01 T00261142  RH  028%=      5-min Rain = 0
KFL1 011945Z 22005KT 03/M14 A3036 RMK A01 T00281143  RH  027%=      5-min Rain = 0
KFL1 011946Z 22005KT 03/M15 A3036 RMK A01 T00271145  RH  027%=      5-min Rain = 0
KFL1 011947Z 23004KT 03/M15 A3036 RMK A01 T00251145  RH  027%=      5-min Rain = 0
KFL1 011948Z 22005KT 03/M14 A3036 RMK A01 T00261137  RH  029%=      5-min Rain = 0
KFL1 011949Z 23004KT 02/M15 A3036 RMK A01 T00231149  RH  027%=      5-min Rain = 0
KFL1 011950Z 23001KT 02/M15 A3036 RMK A01 T00231146  RH  028%=      5-min Rain = 0
KFL1 011951Z 23002KT 02/M14 A3036 RMK A01 T00241141  RH  028%=      5-min Rain = 0
KFL1 011952Z 23004KT 03/M14 A3036 RMK A01 T00261136  RH  029%=      5-min Rain = 0
KFL1 011953Z 21003KT 03/M14 A3036 RMK A01 T00281135  RH  029%=      5-min Rain = 0
KFL1 011954Z 23004KT 03/M14 A3036 RMK A01 T00261142  RH  028%=      5-min Rain = 0
KFL1 011955Z 22005KT 03/M14 A3036 RMK A01 T00251143  RH  028%=      5-min Rain = 0
KFL1 011956Z 22004KT 02/M15 A3036 RMK A01 T00241149  RH  027%=      5-min Rain = 0
KFL1 011957Z 22004KT 02/M15 A3036 RMK A01 T00241146  RH  027%=      5-min Rain = 0
KFL1 011958Z 23006KT 02/M15 A3036 RMK A01 T00231145  RH  028%=      5-min Rain = 0
KFL1 011959Z 22006KT 02/M15 A3036 RMK A01 T00231150  RH  027%=      5-min Rain = 0
KFL1 012000Z 18004KT 03/M14 A3036 RMK A01 T00251143  RH  028%=      5-min Rain = 0
KFL1 012001Z 17004KT 03/M15 A3036 RMK A01 T00261147  RH  027%=      5-min Rain = 0
KFL1 012002Z 19001KT 03/M16 A3036 RMK A01 T00261157  RH  024%=      5-min Rain = 0
KFL1 012003Z 17002KT 03/M15 A3035 RMK A01 T00251152  RH  026%=      5-min Rain = 0
KFL1 012004Z 20002KT 03/M15 A3035 RMK A01 T00271146  RH  027%=      5-min Rain = 0
KFL1 012005Z 22005KT 03/M14 A3035 RMK A01 T00281136  RH  029%=      5-min Rain = 0
KFL1 012006Z 23004KT 03/M14 A3035 RMK A01 T00281142  RH  027%=      5-min Rain = 0
KFL1 012007Z 21006KT 03/M14 A3035 RMK A01 T00261138  RH  029%=      5-min Rain = 0
KFL1 012008Z 22004KT 03/M14 A3035 RMK A01 T00281144  RH  027%=      5-min Rain = 0
KFL1 012009Z 24001KT 03/M16 A3035 RMK A01 T00251160  RH  024%=      5-min Rain = 0
KFL1 012010Z 22003KT 03/M15 A3035 RMK A01 T00251150  RH  026%=      5-min Rain = 0
KFL1 012011Z 18004KT 03/M14 A3035 RMK A01 T00251142  RH  028%=      5-min Rain = 0
KFL1 012012Z 19005KT 03/M14 A3035 RMK A01 T00291140  RH  028%=      5-min Rain = 0
KFL1 012013Z 22005KT 03/M13 A3035 RMK A01 T00321132  RH  029%=      5-min Rain = 0
KFL1 012014Z 22006KT 03/M13 A3035 RMK A01 T00341134  RH  028%=      5-min Rain = 0
KFL1 012015Z 22004KT 03/M15 A3035 RMK A01 T00291148  RH  026%=      5-min Rain = 0
KFL1 012016Z 21006KT 03/M14 A3035 RMK A01 T00271137  RH  029%=      5-min Rain = 0
KFL1 012017Z 20005KT 03/M14 A3035 RMK A01 T00281141  RH  028%=      5-min Rain = 0
KFL1 012018Z 21003KT 03/M15 A3035 RMK A01 T00281145  RH  027%=      5-min Rain = 0
KFL1 012019Z 21005KT 03/M14 A3035 RMK A01 T00281136  RH  029%=      5-min Rain = 0
KFL1 012020Z 22003KT 03/M15 A3035 RMK A01 T00291150  RH  025%=      5-min Rain = 0
KFL1 012021Z 23002KT 03/M15 A3035 RMK A01 T00261152  RH  026%=      5-min Rain = 0
KFL1 012022Z 23003KT 03/M15 A3035 RMK A01 T00281146  RH  026%=      5-min Rain = 0
KFL1 012023Z 22003KT 03/M15 A3035 RMK A01 T00271150  RH  026%=      5-min Rain = 0
KFL1 012024Z 21003KT 03/M15 A3035 RMK A01 T00281145  RH  027%=      5-min Rain = 0
KFL1 012025Z 22004KT 03/M13 A3035 RMK A01 T00291132  RH  029%=      5-min Rain = 0
KFL1 012026Z 22004KT 03/M14 A3035 RMK A01 T00301142  RH  027%=      5-min Rain = 0
KFL1 012027Z 23002KT 03/M15 A3035 RMK A01 T00311149  RH  025%=      5-min Rain = 0
KFL1 012028Z 23002KT 03/M15 A3035 RMK A01 T00291150  RH  025%=      5-min Rain = 0
KFL1 012029Z 21003KT 03/M15 A3035 RMK A01 T00291147  RH  026%=      5-min Rain = 0
KFL1 012030Z 20003KT 03/M14 A3035 RMK A01 T00311135  RH  028%=      5-min Rain = 0
KFL1 012031Z 21003KT 03/M13 A3035 RMK A01 T00321125  RH  030%=      5-min Rain = 0
KFL1 012032Z 20004KT 04/M13 A3035 RMK A01 T00361125  RH  030%=      5-min Rain = 0
KFL1 012033Z 21004KT 04/M13 A3035 RMK A01 T00381129  RH  028%=      5-min Rain = 0
KFL1 012034Z 21003KT 04/M14 A3035 RMK A01 T00391138  RH  026%=      5-min Rain = 0
KFL1 012035Z 22003KT 04/M15 A3035 RMK A01 T00371146  RH  025%=      5-min Rain = 0
KFL1 012036Z 23001KT 03/M16 A3035 RMK A01 T00321155  RH  024%=      5-min Rain = 0
KFL1 012037Z 25002KT 03/M15 A3035 RMK A01 T00311148  RH  025%=      5-min Rain = 0
KFL1 012038Z 24003KT 03/M13 A3035 RMK A01 T00311130  RH  029%=      5-min Rain = 0
KFL1 012039Z 23003KT 03/M14 A3035 RMK A01 T00321136  RH  028%=      5-min Rain = 0
KFL1 012040Z 21002KT 03/M14 A3035 RMK A01 T00321143  RH  026%=      5-min Rain = 0
KFL1 012041Z 27002KT 03/M15 A3035 RMK A01 T00331147  RH  025%=      5-min Rain = 0
KFL1 012042Z 26003KT 03/M14 A3035 RMK A01 T00321141  RH  027%=      5-min Rain = 0
KFL1 012043Z 26002KT 04/M13 A3035 RMK A01 T00351134  RH  028%=      5-min Rain = 0
KFL1 012044Z 28002KT 03/M13 A3035 RMK A01 T00341127  RH  030%=      5-min Rain = 0
KFL1 012045Z 22003KT 04/M14 A3035 RMK A01 T00361136  RH  027%=      5-min Rain = 0
KFL1 012046Z 22004KT 03/M14 A3035 RMK A01 T00341137  RH  027%=      5-min Rain = 0
KFL1 012047Z 21004KT 04/M13 A3035 RMK A01 T00361125  RH  030%=      5-min Rain = 0
KFL1 012048Z 22004KT 04/M14 A3034 RMK A01 T00351135  RH  028%=      5-min Rain = 0
KFL1 012049Z 21003KT 04/M14 A3035 RMK A01 T00351139  RH  027%=      5-min Rain = 0
KFL1 012050Z 20003KT 03/M14 A3035 RMK A01 T00341142  RH  026%=      5-min Rain = 0
KFL1 012051Z 18003KT 04/M14 A3035 RMK A01 T00351142  RH  026%=      5-min Rain = 0
KFL1 012052Z 22003KT 03/M14 A3035 RMK A01 T00341138  RH  027%=      5-min Rain = 0
KFL1 012053Z 22003KT 03/M14 A3035 RMK A01 T00341141  RH  026%=      5-min Rain = 0
KFL1 012054Z 20001KT 04/M15 A3035 RMK A01 T00351147  RH  025%=      5-min Rain = 0
KFL1 012055Z 24001KT 03/M15 A3034 RMK A01 T00341148  RH  025%=      5-min Rain = 0
KFL1 012056Z 24002KT 04/M13 A3034 RMK A01 T00361133  RH  028%=      5-min Rain = 0
KFL1 012057Z 24003KT 04/M13 A3034 RMK A01 T00401126  RH  029%=      5-min Rain = 0
KFL1 012058Z 24003KT 04/M13 A3034 RMK A01 T00421133  RH  027%=      5-min Rain = 0
KFL1 012059Z 23003KT 04/M14 A3034 RMK A01 T00391143  RH  025%=      5-min Rain = 0
KFL1 012100Z 24002KT 04/M15 A3034 RMK A01 T00351147  RH  025%=      5-min Rain = 0
KFL1 012101Z 26002KT 03/M14 A3034 RMK A01 T00341141  RH  026%=      5-min Rain = 0
KFL1 012102Z 24002KT 04/M14 A3034 RMK A01 T00351142  RH  026%=      5-min Rain = 0
KFL1 012103Z 26001KT 03/M14 A3034 RMK A01 T00341144  RH  026%=      5-min Rain = 0
KFL1 012104Z 27001KT 03/M15 A3034 RMK A01 T00341148  RH  025%=      5-min Rain = 0
KFL1 012105Z 24002KT 03/M15 A3034 RMK A01 T00341148  RH  025%=      5-min Rain = 0
KFL1 012106Z 22002KT 03/M15 A3034 RMK A01 T00341149  RH  025%=      5-min Rain = 0
KFL1 012107Z 20003KT 04/M15 A3034 RMK A01 T00371147  RH  025%=      5-min Rain = 0
KFL1 012108Z 18002KT 04/M15 A3034 RMK A01 T00371145  RH  025%=      5-min Rain = 0
KFL1 012109Z 17003KT 04/M15 A3034 RMK A01 T00371148  RH  024%=      5-min Rain = 0
KFL1 012110Z 18002KT 04/M15 A3034 RMK A01 T00361149  RH  024%=      5-min Rain = 0
KFL1 012111Z 21002KT 04/M14 A3034 RMK A01 T00361143  RH  026%=      5-min Rain = 0
KFL1 012112Z 25003KT 03/M15 A3034 RMK A01 T00331146  RH  025%=      5-min Rain = 0
KFL1 012113Z 25003KT 03/M15 A3034 RMK A01 T00331147  RH  025%=      5-min Rain = 0
KFL1 012114Z 24001KT 03/M14 A3034 RMK A01 T00341141  RH  026%=      5-min Rain = 0
KFL1 012115Z 23002KT 03/M14 A3034 RMK A01 T00341140  RH  027%=      5-min Rain = 0
KFL1 012116Z 24002KT 04/M14 A3034 RMK A01 T00361138  RH  027%=      5-min Rain = 0
KFL1 012117Z 24002KT 04/M14 A3034 RMK A01 T00371138  RH  026%=      5-min Rain = 0
KFL1 012118Z 24002KT 04/M14 A3034 RMK A01 T00391138  RH  026%=      5-min Rain = 0
KFL1 012119Z 24002KT 04/M13 A3034 RMK A01 T00401131  RH  027%=      5-min Rain = 0
KFL1 012120Z 24002KT 04/M13 A3033 RMK A01 T00411133  RH  027%=      5-min Rain = 0
KFL1 012121Z 22001KT 04/M13 A3033 RMK A01 T00411134  RH  027%=      5-min Rain = 0
KFL1 012122Z 25002KT 04/M13 A3033 RMK A01 T00411134  RH  027%=      5-min Rain = 0
KFL1 012123Z 25002KT 04/M13 A3033 RMK A01 T00391134  RH  027%=      5-min Rain = 0
KFL1 012124Z 26002KT 04/M14 A3033 RMK A01 T00371138  RH  027%=      5-min Rain = 0
KFL1 012125Z 24002KT 04/M14 A3033 RMK A01 T00391136  RH  027%=      5-min Rain = 0
KFL1 012126Z 25002KT 04/M14 A3033 RMK A01 T00391142  RH  025%=      5-min Rain = 0
KFL1 012127Z 25001KT 04/M14 A3033 RMK A01 T00401141  RH  025%=      5-min Rain = 0
KFL1 012128Z 28001KT 04/M14 A3033 RMK A01 T00401136  RH  026%=      5-min Rain = 0
KFL1 012129Z 28001KT 04/M13 A3033 RMK A01 T00411131  RH  027%=      5-min Rain = 0
KFL1 012130Z 29001KT 04/M14 A3033 RMK A01 T00391138  RH  026%=      5-min Rain = 0
KFL1 012131Z 28001KT 04/M14 A3033 RMK A01 T00381142  RH  026%=      5-min Rain = 0
KFL1 012132Z 28002KT 04/M15 A3033 RMK A01 T00371145  RH  025%=      5-min Rain = 0
KFL1 012133Z 26002KT 04/M15 A3033 RMK A01 T00381146  RH  025%=      5-min Rain = 0
KFL1 012134Z 26002KT 04/M14 A3033 RMK A01 T00381142  RH  026%=      5-min Rain = 0
KFL1 012135Z 23003KT 04/M14 A3033 RMK A01 T00391136  RH  027%=      5-min Rain = 0
KFL1 012136Z 23003KT 04/M14 A3033 RMK A01 T00401140  RH  026%=      5-min Rain = 0
KFL1 012137Z 23002KT 04/M15 A3033 RMK A01 T00381145  RH  025%=      5-min Rain = 0
KFL1 012138Z 24003KT 04/M13 A3033 RMK A01 T00391130  RH  028%=      5-min Rain = 0
KFL1 012139Z 22003KT 04/M13 A3033 RMK A01 T00381130  RH  028%=      5-min Rain = 0
KFL1 012140Z 22002KT 04/M14 A3033 RMK A01 T00401143  RH  025%=      5-min Rain = 0
KFL1 012141Z 21003KT 04/M15 A3033 RMK A01 T00381149  RH  024%=      5-min Rain = 0
KFL1 012142Z 18001KT 04/M15 A3033 RMK A01 T00371151  RH  024%=      5-min Rain = 0
KFL1 012143Z 20001KT 04/M15 A3033 RMK A01 T00391151  RH  024%=      5-min Rain = 0
KFL1 012144Z 23001KT 04/M15 A3033 RMK A01 T00381150  RH  024%=      5-min Rain = 0
KFL1 012145Z 20001KT 04/M14 A3033 RMK A01 T00391142  RH  025%=      5-min Rain = 0
KFL1 012146Z 20002KT 04/M13 A3033 RMK A01 T00421132  RH  027%=      5-min Rain = 0
KFL1 012147Z 23002KT 05/M13 A3033 RMK A01 T00451126  RH  028%=      5-min Rain = 0
KFL1 012148Z 20003KT 05/M14 A3033 RMK A01 T00461135  RH  026%=      5-min Rain = 0
KFL1 012149Z 17002KT 05/M15 A3033 RMK A01 T00461148  RH  023%=      5-min Rain = 0
KFL1 012150Z 20002KT 04/M15 A3033 RMK A01 T00431149  RH  023%=      5-min Rain = 0
KFL1 012151Z 23001KT 04/M14 A3033 RMK A01 T00431141  RH  025%=      5-min Rain = 0
KFL1 012152Z 23002KT 04/M14 A3033 RMK A01 T00411140  RH  025%=      5-min Rain = 0
KFL1 012153Z 23001KT 04/M14 A3033 RMK A01 T00411138  RH  026%=      5-min Rain = 0
KFL1 012154Z 22002KT 04/M14 A3033 RMK A01 T00421139  RH  026%=      5-min Rain = 0
KFL1 012155Z 24002KT 04/M14 A3033 RMK A01 T00391144  RH  025%=      5-min Rain = 0
KFL1 012156Z 25002KT 04/M15 A3033 RMK A01 T00361148  RH  025%=      5-min Rain = 0
KFL1 012157Z 24003KT 04/M14 A3033 RMK A01 T00371136  RH  027%=      5-min Rain = 0
KFL1 012158Z 22002KT 04/M14 A3033 RMK A01 T00381136  RH  027%=      5-min Rain = 0
KFL1 012159Z 22002KT 04/M14 A3033 RMK A01 T00421136  RH  026%=      5-min Rain = 0
KFL1 012200Z 22002KT 04/M14 A3033 RMK A01 T00431136  RH  026%=      5-min Rain = 0
KFL1 012201Z 24002KT 05/M14 A3033 RMK A01 T00451142  RH  024%=      5-min Rain = 0
KFL1 012202Z 25003KT 04/M13 A3033 RMK A01 T00431134  RH  026%=      5-min Rain = 0
KFL1 012203Z 23003KT 04/M13 A3033 RMK A01 T00441134  RH  026%=      5-min Rain = 0
KFL1 012204Z 24002KT 04/M14 A3033 RMK A01 T00441141  RH  025%=      5-min Rain = 0
KFL1 012205Z 23002KT 04/M15 A3033 RMK A01 T00421145  RH  024%=      5-min Rain = 0
KFL1 012206Z 22002KT 04/M15 A3033 RMK A01 T00411146  RH  024%=      5-min Rain = 0
KFL1 012207Z 23002KT 04/M14 A3033 RMK A01 T00421142  RH  025%=      5-min Rain = 0
KFL1 012208Z 23002KT 04/M14 A3033 RMK A01 T00431136  RH  026%=      5-min Rain = 0
KFL1 012209Z 22003KT 05/M13 A3033 RMK A01 T00451133  RH  026%=      5-min Rain = 0
KFL1 012210Z 22003KT 05/M13 A3033 RMK A01 T00461130  RH  027%=      5-min Rain = 0
KFL1 012211Z 21002KT 05/M13 A3033 RMK A01 T00491134  RH  025%=      5-min Rain = 0
KFL1 012212Z 22003KT 05/M14 A3033 RMK A01 T00461143  RH  024%=      5-min Rain = 0
KFL1 012213Z 22002KT 05/M14 A3033 RMK A01 T00461137  RH  025%=      5-min Rain = 0
KFL1 012214Z 21002KT 05/M13 A3033 RMK A01 T00471126  RH  027%=      5-min Rain = 0
KFL1 012215Z 22003KT 05/M13 A3033 RMK A01 T00501125  RH  027%=      5-min Rain = 0
KFL1 012216Z 18002KT 05/M14 A3033 RMK A01 T00491136  RH  025%=      5-min Rain = 0
KFL1 012217Z 16003KT 05/M14 A3033 RMK A01 T00471142  RH  024%=      5-min Rain = 0
KFL1 012218Z 16003KT 05/M14 A3033 RMK A01 T00471138  RH  025%=      5-min Rain = 0
KFL1 012219Z 15003KT 05/M14 A3033 RMK A01 T00451137  RH  025%=      5-min Rain = 0
KFL1 012220Z 16002KT 04/M14 A3033 RMK A01 T00431143  RH  024%=      5-min Rain = 0
KFL1 012221Z 20001KT 04/M14 A3033 RMK A01 T00401141  RH  025%=      5-min Rain = 0
KFL1 012222Z 14001KT 04/M13 A3033 RMK A01 T00431134  RH  026%=      5-min Rain = 0
KFL1 012223Z 14003KT 04/M14 A3033 RMK A01 T00421138  RH  026%=      5-min Rain = 0
KFL1 012224Z 17002KT 04/M13 A3033 RMK A01 T00431133  RH  026%=      5-min Rain = 0
KFL1 012225Z 18001KT 05/M14 A3033 RMK A01 T00451137  RH  025%=      5-min Rain = 0
KFL1 012226Z 14001KT 04/M14 A3033 RMK A01 T00441136  RH  026%=      5-min Rain = 0
KFL1 012227Z 19003KT 04/M14 A3033 RMK A01 T00441138  RH  025%=      5-min Rain = 0
KFL1 012228Z 22002KT 05/M13 A3033 RMK A01 T00471127  RH  027%=      5-min Rain = 0
KFL1 012229Z 23003KT 05/M13 A3033 RMK A01 T00471127  RH  027%=      5-min Rain = 0
KFL1 012230Z 24003KT 05/M13 A3032 RMK A01 T00471129  RH  027%=      5-min Rain = 0
KFL1 012231Z 24005KT 05/M12 A3032 RMK A01 T00461124  RH  028%=      5-min Rain = 0
KFL1 012232Z 23004KT 04/M13 A3032 RMK A01 T00431129  RH  027%=      5-min Rain = 0
KFL1 012233Z 18002KT 05/M12 A3032 RMK A01 T00461118  RH  029%=      5-min Rain = 0
KFL1 012234Z 16003KT 05/M13 A3032 RMK A01 T00461128  RH  027%=      5-min Rain = 0
KFL1 012235Z 19002KT 05/M13 A3033 RMK A01 T00461130  RH  027%=      5-min Rain = 0
KFL1 012236Z 21003KT 05/M13 A3033 RMK A01 T00461125  RH  028%=      5-min Rain = 0
KFL1 012237Z 22004KT 05/M12 A3033 RMK A01 T00491118  RH  029%=      5-min Rain = 0
KFL1 012238Z 21004KT 05/M13 A3033 RMK A01 T00481129  RH  026%=      5-min Rain = 0
KFL1 012239Z 22002KT 05/M13 A3033 RMK A01 T00471132  RH  026%=      5-min Rain = 0
KFL1 012240Z 22003KT 05/M13 A3033 RMK A01 T00481125  RH  027%=      5-min Rain = 0
KFL1 012241Z 22004KT 05/M12 A3033 RMK A01 T00471121  RH  028%=      5-min Rain = 0
KFL1 012242Z 22005KT 05/M11 A3033 RMK A01 T00471111  RH  031%=      5-min Rain = 0
KFL1 012243Z 23003KT 05/M12 A3033 RMK A01 T00481117  RH  029%=      5-min Rain = 0
KFL1 012244Z 24003KT 05/M12 A3032 RMK A01 T00481120  RH  028%=      5-min Rain = 0
KFL1 012245Z 23002KT 05/M13 A3032 RMK A01 T00471130  RH  026%=      5-min Rain = 0
KFL1 012246Z 23003KT 05/M13 A3032 RMK A01 T00471126  RH  027%=      5-min Rain = 0
KFL1 012247Z 22003KT 05/M11 A3032 RMK A01 T00491110  RH  030%=      5-min Rain = 0
KFL1 012248Z 21004KT 05/M11 A3032 RMK A01 T00491113  RH  030%=      5-min Rain = 0
KFL1 012249Z 21005KT 05/M11 A3032 RMK A01 T00491112  RH  030%=      5-min Rain = 0
KFL1 012250Z 20004KT 05/M12 A3032 RMK A01 T00481118  RH  029%=      5-min Rain = 0
KFL1 012251Z 20004KT 05/M12 A3032 RMK A01 T00491123  RH  028%=      5-min Rain = 0
KFL1 012252Z 20004KT 05/M12 A3032 RMK A01 T00481117  RH  029%=      5-min Rain = 0
KFL1 012253Z 19003KT 05/M13 A3032 RMK A01 T00491126  RH  027%=      5-min Rain = 0
KFL1 012254Z 19003KT 05/M13 A3032 RMK A01 T00501127  RH  027%=      5-min Rain = 0
KFL1 012255Z 20003KT 05/M13 A3032 RMK A01 T00501127  RH  026%=      5-min Rain = 0
KFL1 012256Z 21003KT 05/M13 A3032 RMK A01 T00491132  RH  026%=      5-min Rain = 0
KFL1 012257Z 21002KT 05/M13 A3032 RMK A01 T00511130  RH  026%=      5-min Rain = 0
KFL1 012258Z 22003KT 05/M13 A3032 RMK A01 T00511127  RH  026%=      5-min Rain = 0
KFL1 012259Z 22003KT 05/M13 A3032 RMK A01 T00491126  RH  027%=      5-min Rain = 0
KFL1 012300Z 23003KT 05/M12 A3032 RMK A01 T00511123  RH  027%=      5-min Rain = 0
KFL1 012301Z 23003KT 05/M13 A3032 RMK A01 T00481128  RH  027%=      5-min Rain = 0
KFL1 012302Z 22003KT 05/M12 A3032 RMK A01 T00471122  RH  028%=      5-min Rain = 0
KFL1 012303Z 23003KT 05/M12 A3032 RMK A01 T00471116  RH  030%=      5-min Rain = 0
KFL1 012304Z 22003KT 05/M12 A3032 RMK A01 T00451119  RH  029%=      5-min Rain = 0
KFL1 012305Z 22003KT 04/M12 A3032 RMK A01 T00441121  RH  029%=      5-min Rain = 0
KFL1 012306Z 24004KT 04/M11 A3032 RMK A01 T00421113  RH  031%=      5-min Rain = 0
KFL1 012307Z 23004KT 04/M11 A3032 RMK A01 T00431111  RH  032%=      5-min Rain = 0
KFL1 012308Z 22003KT 04/M11 A3032 RMK A01 T00421112  RH  032%=      5-min Rain = 0
KFL1 012309Z 22003KT 04/M11 A3032 RMK A01 T00441111  RH  031%=      5-min Rain = 0
KFL1 012310Z 20002KT 04/M12 A3032 RMK A01 T00441116  RH  030%=      5-min Rain = 0
KFL1 012311Z 19004KT 05/M12 A3032 RMK A01 T00461120  RH  029%=      5-min Rain = 0
KFL1 012312Z 20004KT 05/M12 A3032 RMK A01 T00451121  RH  029%=      5-min Rain = 0
KFL1 012313Z 21004KT 05/M12 A3032 RMK A01 T00451123  RH  028%=      5-min Rain = 0
KFL1 012314Z 21004KT 05/M11 A3032 RMK A01 T00471112  RH  030%=      5-min Rain = 0
KFL1 012315Z 22005KT 05/M11 A3032 RMK A01 T00471108  RH  032%=      5-min Rain = 0
KFL1 012316Z 22004KT 05/M12 A3032 RMK A01 T00461118  RH  029%=      5-min Rain = 0
KFL1 012317Z 21004KT 05/M12 A3032 RMK A01 T00451117  RH  030%=      5-min Rain = 0
KFL1 012318Z 20004KT 05/M12 A3032 RMK A01 T00471120  RH  029%=      5-min Rain = 0
KFL1 012319Z 19004KT 05/M13 A3032 RMK A01 T00471126  RH  027%=      5-min Rain = 0
KFL1 012320Z 22004KT 05/M12 A3032 RMK A01 T00471121  RH  028%=      5-min Rain = 0
KFL1 012321Z 23003KT 05/M11 A3032 RMK A01 T00481113  RH  030%=      5-min Rain = 0
KFL1 012322Z 22004KT 05/M11 A3032 RMK A01 T00481106  RH  032%=      5-min Rain = 0
KFL1 012323Z 22004KT 05/M10 A3032 RMK A01 T00471104  RH  032%=      5-min Rain = 0
KFL1 012324Z 22004KT 05/M11 A3032 RMK A01 T00451110  RH  032%=      5-min Rain = 0
KFL1 012325Z 23004KT 05/M11 A3032 RMK A01 T00451111  RH  031%=      5-min Rain = 0
KFL1 012326Z 22005KT 04/M11 A3032 RMK A01 T00441105  RH  033%=      5-min Rain = 0
KFL1 012327Z 22004KT 04/M11 A3032 RMK A01 T00431109  RH  032%=      5-min Rain = 0
KFL1 012328Z 23004KT 04/M11 A3032 RMK A01 T00431108  RH  032%=      5-min Rain = 0
KFL1 012329Z 23003KT 04/M11 A3032 RMK A01 T00411109  RH  032%=      5-min Rain = 0
KFL1 012330Z 22003KT 04/M11 A3032 RMK A01 T00421110  RH  032%=      5-min Rain = 0
KFL1 012331Z 22003KT 04/M11 A3032 RMK A01 T00431112  RH  032%=      5-min Rain = 0
KFL1 012332Z 21004KT 04/M11 A3032 RMK A01 T00411105  RH  033%=      5-min Rain = 0
KFL1 012333Z 21004KT 04/M11 A3032 RMK A01 T00421106  RH  033%=      5-min Rain = 0
KFL1 012334Z 21004KT 04/M11 A3032 RMK A01 T00431109  RH  032%=      5-min Rain = 0
KFL1 012335Z 21005KT 04/M11 A3032 RMK A01 T00441113  RH  031%=      5-min Rain = 0
KFL1 012336Z 21004KT 04/M12 A3032 RMK A01 T00441115  RH  030%=      5-min Rain = 0
KFL1 012337Z 22002KT 05/M13 A3032 RMK A01 T00451130  RH  027%=      5-min Rain = 0
KFL1 012338Z 22004KT 04/M13 A3032 RMK A01 T00431129  RH  027%=      5-min Rain = 0
KFL1 012339Z 21005KT 04/M12 A3032 RMK A01 T00431122  RH  029%=      5-min Rain = 0
KFL1 012340Z 22005KT 04/M12 A3032 RMK A01 T00441118  RH  030%=      5-min Rain = 0
KFL1 012341Z 22005KT 04/M12 A3032 RMK A01 T00421120  RH  030%=      5-min Rain = 0
KFL1 012342Z 21005KT 04/M12 A3032 RMK A01 T00421117  RH  030%=      5-min Rain = 0
KFL1 012343Z 21004KT 04/M13 A3032 RMK A01 T00421132  RH  027%=      5-min Rain = 0
KFL1 012344Z 21003KT 04/M13 A3032 RMK A01 T00421126  RH  028%=      5-min Rain = 0
KFL1 012345Z 23003KT 04/M12 A3032 RMK A01 T00441119  RH  029%=      5-min Rain = 0
KFL1 012346Z 22004KT 04/M12 A3032 RMK A01 T00421115  RH  031%=      5-min Rain = 0
KFL1 012347Z 22004KT 04/M11 A3032 RMK A01 T00421113  RH  031%=      5-min Rain = 0
KFL1 012348Z 22002KT 04/M12 A3032 RMK A01 T00401115  RH  031%=      5-min Rain = 0
KFL1 012349Z 21003KT 04/M11 A3032 RMK A01 T00401111  RH  032%=      5-min Rain = 0
KFL1 012350Z 21003KT 04/M12 A3032 RMK A01 T00421115  RH  031%=      5-min Rain = 0
KFL1 012351Z 20006KT 04/M12 A3032 RMK A01 T00421118  RH  030%=      5-min Rain = 0
KFL1 012352Z 20004KT 04/M12 A3032 RMK A01 T00411121  RH  030%=      5-min Rain = 0
KFL1 012353Z 18003KT 04/M12 A3032 RMK A01 T00401115  RH  031%=      5-min Rain = 0
KFL1 012354Z 18004KT 04/M11 A3032 RMK A01 T00421111  RH  032%=      5-min Rain = 0
KFL1 012355Z 18004KT 04/M11 A3032 RMK A01 T00411114  RH  031%=      5-min Rain = 0
KFL1 012356Z 19005KT 04/M12 A3032 RMK A01 T00421118  RH  030%=      5-min Rain = 0
KFL1 012357Z 20003KT 04/M12 A3032 RMK A01 T00421119  RH  030%=      5-min Rain = 0
KFL1 012358Z 20005KT 04/M12 A3032 RMK A01 T00411118  RH  030%=      5-min Rain = 0
KFL1 012359Z 20004KT 04/M12 A3032 RMK A01 T00411115  RH  031%=      5-min Rain = 0
KFL1 020000Z 19004KT 04/M12 A3032 RMK A01 T00401120  RH  030%=      5-min Rain = 0
KFL1 020001Z 20002KT 04/M12 A3032 RMK A01 T00401122  RH  030%=      5-min Rain = 0
KFL1 020002Z 20005KT 04/M12 A3032 RMK A01 T00421116  RH  031%=      5-min Rain = 0
KFL1 020003Z 20005KT 04/M12 A3032 RMK A01 T00401124  RH  029%=      5-min Rain = 0
KFL1 020004Z 20005KT 04/M12 A3032 RMK A01 T00401120  RH  030%=      5-min Rain = 0
KFL1 020005Z 19005KT 04/M12 A3032 RMK A01 T00401119  RH  030%=      5-min Rain = 0
KFL1 020006Z 19005KT 04/M12 A3032 RMK A01 T00381122  RH  030%=      5-min Rain = 0
KFL1 020007Z 18004KT 04/M12 A3032 RMK A01 T00371123  RH  030%=      5-min Rain = 0
KFL1 020008Z 18005KT 04/M12 A3032 RMK A01 T00381124  RH  030%=      5-min Rain = 0
KFL1 020009Z 18004KT 04/M13 A3032 RMK A01 T00361130  RH  029%=      5-min Rain = 0
KFL1 020010Z 19004KT 04/M13 A3032 RMK A01 T00351128  RH  029%=      5-min Rain = 0
KFL1 020011Z 21003KT 04/M13 A3032 RMK A01 T00361125  RH  030%=      5-min Rain = 0
KFL1 020012Z 20003KT 04/M12 A3032 RMK A01 T00351118  RH  032%=      5-min Rain = 0
KFL1 020013Z 21005KT 04/M12 A3032 RMK A01 T00361120  RH  031%=      5-min Rain = 0
KFL1 020014Z 20004KT 04/M12 A3032 RMK A01 T00381118  RH  031%=      5-min Rain = 0
KFL1 020015Z 20004KT 04/M12 A3032 RMK A01 T00361120  RH  031%=      5-min Rain = 0
KFL1 020016Z 20004KT 04/M12 A3032 RMK A01 T00351118  RH  032%=      5-min Rain = 0
KFL1 020017Z 20004KT 04/M12 A3032 RMK A01 T00351115  RH  032%=      5-min Rain = 0
KFL1 020018Z 20005KT 04/M12 A3032 RMK A01 T00351115  RH  032%=      5-min Rain = 0
KFL1 020019Z 21004KT 03/M12 A3032 RMK A01 T00341115  RH  033%=      5-min Rain = 0
KFL1 020020Z 21004KT 03/M11 A3032 RMK A01 T00331113  RH  033%=      5-min Rain = 0
KFL1 020021Z 21005KT 03/M12 A3032 RMK A01 T00341116  RH  032%=      5-min Rain = 0
KFL1 020022Z 21005KT 03/M12 A3032 RMK A01 T00331117  RH  032%=      5-min Rain = 0
KFL1 020023Z 20005KT 03/M11 A3032 RMK A01 T00331114  RH  033%=      5-min Rain = 0
KFL1 020024Z 21006KT 03/M12 A3032 RMK A01 T00311121  RH  032%=      5-min Rain = 0
KFL1 020025Z 20005KT 03/M12 A3032 RMK A01 T00301118  RH  033%=      5-min Rain = 0
KFL1 020026Z 20005KT 03/M12 A3032 RMK A01 T00301116  RH  033%=      5-min Rain = 0
KFL1 020027Z 19005KT 03/M12 A3032 RMK A01 T00271120  RH  033%=      5-min Rain = 0
KFL1 020028Z 20004KT 03/M13 A3032 RMK A01 T00271126  RH  031%=      5-min Rain = 0
KFL1 020029Z 19004KT 03/M12 A3032 RMK A01 T00261122  RH  033%=      5-min Rain = 0
KFL1 020030Z 20005KT 03/M12 A3032 RMK A01 T00251121  RH  033%=      5-min Rain = 0
KFL1 020031Z 20004KT 03/M12 A3032 RMK A01 T00251119  RH  034%=      5-min Rain = 0
KFL1 020032Z 20005KT 02/M12 A3032 RMK A01 T00241119  RH  034%=      5-min Rain = 0
KFL1 020033Z 20004KT 02/M12 A3032 RMK A01 T00231121  RH  034%=      5-min Rain = 0
KFL1 020034Z 20005KT 02/M12 A3032 RMK A01 T00231117  RH  035%=      5-min Rain = 0
KFL1 020035Z 21004KT 02/M12 A3032 RMK A01 T00201117  RH  035%=      5-min Rain = 0
KFL1 020036Z 21005KT 02/M12 A3032 RMK A01 T00191122  RH  034%=      5-min Rain = 0
KFL1 020037Z 20005KT 02/M12 A3032 RMK A01 T00191123  RH  034%=      5-min Rain = 0
KFL1 020038Z 21004KT 02/M13 A3032 RMK A01 T00181127  RH  033%=      5-min Rain = 0
KFL1 020039Z 21005KT 02/M13 A3032 RMK A01 T00181126  RH  034%=      5-min Rain = 0
KFL1 020040Z 21005KT 02/M13 A3032 RMK A01 T00181125  RH  034%=      5-min Rain = 0
KFL1 020041Z 22005KT 02/M13 A3032 RMK A01 T00171127  RH  033%=      5-min Rain = 0
KFL1 020042Z 21006KT 02/M12 A3032 RMK A01 T00151124  RH  035%=      5-min Rain = 0
KFL1 020043Z 20005KT 02/M13 A3032 RMK A01 T00161126  RH  034%=      5-min Rain = 0
KFL1 020044Z 20005KT 01/M13 A3032 RMK A01 T00141126  RH  035%=      5-min Rain = 0
KFL1 020045Z 20005KT 02/M13 A3032 RMK A01 T00151125  RH  034%=      5-min Rain = 0
KFL1 020046Z 20005KT 01/M13 A3032 RMK A01 T00131127  RH  034%=      5-min Rain = 0
KFL1 020047Z 20005KT 01/M12 A3032 RMK A01 T00141123  RH  035%=      5-min Rain = 0
KFL1 020048Z 20005KT 01/M13 A3032 RMK A01 T00141126  RH  035%=      5-min Rain = 0
KFL1 020049Z 20005KT 01/M13 A3032 RMK A01 T00121129  RH  034%=      5-min Rain = 0
KFL1 020050Z 20005KT 01/M13 A3032 RMK A01 T00111129  RH  034%=      5-min Rain = 0
KFL1 020051Z 21005KT 01/M13 A3032 RMK A01 T00121129  RH  034%=      5-min Rain = 0
KFL1 020052Z 20005KT 01/M13 A3032 RMK A01 T00111133  RH  033%=      5-min Rain = 0
KFL1 020053Z 21005KT 01/M13 A3032 RMK A01 T00101131  RH  034%=      5-min Rain = 0
KFL1 020054Z 20004KT 01/M13 A3032 RMK A01 T00091133  RH  034%=      5-min Rain = 0
KFL1 020055Z 21005KT 01/M13 A3032 RMK A01 T00081133  RH  034%=      5-min Rain = 0
KFL1 020056Z 21005KT 01/M13 A3032 RMK A01 T00091127  RH  035%=      5-min Rain = 0
KFL1 020057Z 22004KT 01/M13 A3032 RMK A01 T00071126  RH  036%=      5-min Rain = 0
KFL1 020058Z 22004KT 01/M12 A3032 RMK A01 T00051121  RH  038%=      5-min Rain = 0
KFL1 020059Z 22004KT 00/M12 A3032 RMK A01 T00031119  RH  039%=      5-min Rain = 0
KFL1 020100Z 22004KT 00/M12 A3032 RMK A01 T00011119  RH  040%=      5-min Rain = 0
KFL1 020101Z 22004KT M00/M12 A3032 RMK A01 T10011121  RH  040%=      5-min Rain = 0
KFL1 020102Z 22004KT M00/M12 A3032 RMK A01 T10021121  RH  040%=      5-min Rain = 0
KFL1 020103Z 22004KT M00/M13 A3032 RMK A01 T10041125  RH  039%=      5-min Rain = 0
KFL1 020104Z 22004KT M00/M12 A3032 RMK A01 T10031118  RH  041%=      5-min Rain = 0
KFL1 020105Z 22004KT M00/M12 A3032 RMK A01 T10041118  RH  042%=      5-min Rain = 0
KFL1 020106Z 22004KT M01/M11 A3032 RMK A01 T10061113  RH  044%=      5-min Rain = 0
KFL1 020107Z 22004KT M01/M11 A3032 RMK A01 T10091114  RH  045%=      5-min Rain = 0
KFL1 020108Z 22004KT M01/M12 A3032 RMK A01 T10101116  RH  044%=      5-min Rain = 0
KFL1 020109Z 23004KT M01/M12 A3032 RMK A01 T10111120  RH  043%=      5-min Rain = 0
KFL1 020110Z 23004KT M01/M12 A3032 RMK A01 T10111118  RH  044%=      5-min Rain = 0
KFL1 020111Z 23003KT M01/M12 A3032 RMK A01 T10111119  RH  044%=      5-min Rain = 0
KFL1 020112Z 23003KT M01/M12 A3032 RMK A01 T10111119  RH  044%=      5-min Rain = 0
KFL1 020113Z 23003KT M01/M12 A3032 RMK A01 T10131121  RH  044%=      5-min Rain = 0
KFL1 020114Z 23003KT M01/M12 A3032 RMK A01 T10141122  RH  044%=      5-min Rain = 0
KFL1 020115Z 24003KT M01/M12 A3033 RMK A01 T10141123  RH  043%=      5-min Rain = 0
KFL1 020116Z 24003KT M01/M12 A3033 RMK A01 T10141123  RH  043%=      5-min Rain = 0
KFL1 020117Z 24003KT M02/M12 A3033 RMK A01 T10151124  RH  043%=      5-min Rain = 0
KFL1 020118Z 24003KT M02/M13 A3033 RMK A01 T10151127  RH  042%=      5-min Rain = 0
KFL1 020119Z 24003KT M01/M13 A3033 RMK A01 T10141129  RH  041%=      5-min Rain = 0
KFL1 020120Z 24003KT M01/M13 A3033 RMK A01 T10141132  RH  040%=      5-min Rain = 0
KFL1 020121Z 24002KT M01/M14 A3033 RMK A01 T10141136  RH  039%=      5-min Rain = 0
KFL1 020122Z 24002KT M01/M14 A3033 RMK A01 T10121136  RH  039%=      5-min Rain = 0
KFL1 020123Z 24003KT M01/M14 A3033 RMK A01 T10141135  RH  039%=      5-min Rain = 0
KFL1 020124Z 25002KT M01/M13 A3033 RMK A01 T10131134  RH  039%=      5-min Rain = 0
KFL1 020125Z 25003KT M01/M13 A3033 RMK A01 T10131134  RH  040%=      5-min Rain = 0
KFL1 020126Z 25003KT M01/M13 A3033 RMK A01 T10131133  RH  040%=      5-min Rain = 0
KFL1 020127Z 25003KT M02/M13 A3033 RMK A01 T10151133  RH  040%=      5-min Rain = 0
KFL1 020128Z 25003KT M02/M13 A3033 RMK A01 T10161132  RH  041%=      5-min Rain = 0
KFL1 020129Z 25003KT M02/M13 A3033 RMK A01 T10191133  RH  041%=      5-min Rain = 0
KFL1 020130Z 25003KT M02/M13 A3033 RMK A01 T10191132  RH  042%=      5-min Rain = 0
KFL1 020131Z 24003KT M02/M13 A3033 RMK A01 T10201132  RH  042%=      5-min Rain = 0
KFL1 020132Z 24003KT M02/M13 A3033 RMK A01 T10201132  RH  042%=      5-min Rain = 0
KFL1 020133Z 24003KT M02/M13 A3033 RMK A01 T10201131  RH  043%=      5-min Rain = 0
KFL1 020134Z 24003KT M02/M13 A3033 RMK A01 T10211134  RH  042%=      5-min Rain = 0
KFL1 020135Z 24003KT M02/M13 A3033 RMK A01 T10211134  RH  042%=      5-min Rain = 0
KFL1 020136Z 23003KT M02/M13 A3033 RMK A01 T10211134  RH  042%=      5-min Rain = 0
KFL1 020137Z 23004KT M02/M13 A3033 RMK A01 T10211134  RH  042%=      5-min Rain = 0
KFL1 020138Z 23004KT M02/M13 A3033 RMK A01 T10211132  RH  042%=      5-min Rain = 0
KFL1 020139Z 23003KT M02/M13 A3033 RMK A01 T10231129  RH  044%=      5-min Rain = 0
KFL1 020140Z 23004KT M03/M13 A3033 RMK A01 T10271130  RH  045%=      5-min Rain = 0
KFL1 020141Z 24003KT M03/M13 A3033 RMK A01 T10271130  RH  045%=      5-min Rain = 0
KFL1 020142Z 23003KT M03/M13 A3033 RMK A01 T10281131  RH  045%=      5-min Rain = 0
KFL1 020143Z 24003KT M03/M13 A3033 RMK A01 T10271130  RH  045%=      5-min Rain = 0
KFL1 020144Z 24004KT M03/M13 A3033 RMK A01 T10271129  RH  045%=      5-min Rain = 0
KFL1 020145Z 24003KT M03/M13 A3033 RMK A01 T10281129  RH  046%=      5-min Rain = 0
KFL1 020146Z 24004KT M03/M13 A3033 RMK A01 T10291129  RH  046%=      5-min Rain = 0
KFL1 020147Z 24003KT M03/M13 A3033 RMK A01 T10301130  RH  046%=      5-min Rain = 0
KFL1 020148Z 24003KT M03/M13 A3033 RMK A01 T10301130  RH  046%=      5-min Rain = 0
KFL1 020149Z 24003KT M03/M13 A3033 RMK A01 T10311131  RH  046%=      5-min Rain = 0
KFL1 020150Z 24004KT M03/M13 A3033 RMK A01 T10311131  RH  046%=      5-min Rain = 0
KFL1 020151Z 24004KT M03/M13 A3033 RMK A01 T10321128  RH  047%=      5-min Rain = 0
KFL1 020152Z 25004KT M03/M13 A3033 RMK A01 T10321125  RH  049%=      5-min Rain = 0
KFL1 020153Z 25004KT M04/M13 A3033 RMK A01 T10351126  RH  049%=      5-min Rain = 0
KFL1 020154Z 25003KT M03/M13 A3033 RMK A01 T10341126  RH  049%=      5-min Rain = 0
KFL1 020155Z 25004KT M03/M13 A3033 RMK A01 T10321128  RH  048%=      5-min Rain = 0
KFL1 020156Z 25004KT M03/M13 A3033 RMK A01 T10281129  RH  046%=      5-min Rain = 0
KFL1 020157Z 25003KT M03/M13 A3033 RMK A01 T10281128  RH  046%=      5-min Rain = 0
KFL1 020158Z 25004KT M03/M13 A3033 RMK A01 T10271125  RH  047%=      5-min Rain = 0
KFL1 020159Z 25003KT M03/M13 A3033 RMK A01 T10281125  RH  047%=      5-min Rain = 0
KFL1 020200Z 26003KT M03/M13 A3033 RMK A01 T10301128  RH  047%=      5-min Rain = 0
KFL1 020201Z 26003KT M03/M13 A3033 RMK A01 T10301127  RH  047%=      5-min Rain = 0
KFL1 020202Z 26004KT M03/M13 A3033 RMK A01 T10321132  RH  046%=      5-min Rain = 0
KFL1 020203Z 26003KT M03/M13 A3033 RMK A01 T10301134  RH  045%=      5-min Rain = 0
KFL1 020204Z 27004KT M03/M13 A3033 RMK A01 T10281131  RH  045%=      5-min Rain = 0
KFL1 020205Z 27003KT M03/M13 A3033 RMK A01 T10301129  RH  046%=      5-min Rain = 0
KFL1 020206Z 28003KT M03/M13 A3033 RMK A01 T10331132  RH  046%=      5-min Rain = 0
KFL1 020207Z 28003KT M03/M13 A3033 RMK A01 T10341132  RH  047%=      5-min Rain = 0
KFL1 020208Z 28003KT M04/M13 A3033 RMK A01 T10371134  RH  047%=      5-min Rain = 0
KFL1 020209Z 28003KT M04/M13 A3033 RMK A01 T10401134  RH  048%=      5-min Rain = 0
KFL1 020210Z 28003KT M05/M14 A3033 RMK A01 T10451135  RH  049%=      5-min Rain = 0
KFL1 020211Z 28003KT M05/M14 A3033 RMK A01 T10461135  RH  050%=      5-min Rain = 0
KFL1 020212Z 28003KT M05/M14 A3033 RMK A01 T10471139  RH  049%=      5-min Rain = 0
KFL1 020213Z 28003KT M05/M14 A3033 RMK A01 T10471138  RH  049%=      5-min Rain = 0
KFL1 020214Z 29004KT M05/M14 A3033 RMK A01 T10511140  RH  050%=      5-min Rain = 0
KFL1 020215Z 29004KT M05/M14 A3034 RMK A01 T10521138  RH  051%=      5-min Rain = 0
KFL1 020216Z 29004KT M06/M14 A3034 RMK A01 T10551137  RH  052%=      5-min Rain = 0
KFL1 020217Z 29004KT M06/M14 A3034 RMK A01 T10571135  RH  054%=      5-min Rain = 0
KFL1 020218Z 29004KT M06/M14 A3033 RMK A01 T10601136  RH  055%=      5-min Rain = 0
KFL1 020219Z 29004KT M06/M14 A3033 RMK A01 T10611136  RH  055%=      5-min Rain = 0
KFL1 020220Z 29004KT M06/M14 A3033 RMK A01 T10581136  RH  054%=      5-min Rain = 0
KFL1 020221Z 29004KT M06/M14 A3033 RMK A01 T10581136  RH  054%=      5-min Rain = 0
KFL1 020222Z 29004KT M06/M14 A3033 RMK A01 T10561137  RH  053%=      5-min Rain = 0
KFL1 020223Z 29004KT M05/M14 A3034 RMK A01 T10521138  RH  051%=      5-min Rain = 0
KFL1 020224Z 29004KT M05/M14 A3034 RMK A01 T10491137  RH  050%=      5-min Rain = 0
KFL1 020225Z 29004KT M05/M14 A3034 RMK A01 T10491140  RH  049%=      5-min Rain = 0
KFL1 020226Z 29004KT M05/M14 A3034 RMK A01 T10491141  RH  048%=      5-min Rain = 0
KFL1 020227Z 29004KT M05/M14 A3034 RMK A01 T10481144  RH  047%=      5-min Rain = 0
KFL1 020228Z 30004KT M05/M14 A3034 RMK A01 T10481144  RH  047%=      5-min Rain = 0
KFL1 020229Z 30003KT M05/M15 A3034 RMK A01 T10471145  RH  046%=      5-min Rain = 0
KFL1 020230Z 30003KT M05/M15 A3034 RMK A01 T10451145  RH  045%=      5-min Rain = 0
KFL1 020231Z 30003KT M05/M15 A3034 RMK A01 T10461147  RH  045%=      5-min Rain = 0
KFL1 020232Z 30004KT M05/M15 A3034 RMK A01 T10481146  RH  047%=      5-min Rain = 0
KFL1 020233Z 31004KT M05/M15 A3034 RMK A01 T10521145  RH  048%=      5-min Rain = 0
KFL1 020234Z 30004KT M06/M15 A3034 RMK A01 T10551145  RH  049%=      5-min Rain = 0
KFL1 020235Z 30004KT M06/M14 A3034 RMK A01 T10551143  RH  050%=      5-min Rain = 0
KFL1 020236Z 30004KT M06/M14 A3034 RMK A01 T10561142  RH  051%=      5-min Rain = 0
KFL1 020237Z 30004KT M06/M14 A3034 RMK A01 T10581143  RH  051%=      5-min Rain = 0
KFL1 020238Z 29004KT M06/M14 A3034 RMK A01 T10591142  RH  052%=      5-min Rain = 0
KFL1 020239Z 29004KT M06/M14 A3034 RMK A01 T10601143  RH  052%=      5-min Rain = 0
KFL1 020240Z 30004KT M06/M14 A3034 RMK A01 T10591142  RH  052%=      5-min Rain = 0
KFL1 020241Z 30004KT M06/M14 A3034 RMK A01 T10571141  RH  052%=      5-min Rain = 0
KFL1 020242Z 30004KT M05/M14 A3034 RMK A01 T10541142  RH  050%=      5-min Rain = 0
KFL1 020243Z 30004KT M05/M14 A3034 RMK A01 T10531143  RH  049%=      5-min Rain = 0
KFL1 020244Z 30004KT M05/M15 A3034 RMK A01 T10521145  RH  048%=      5-min Rain = 0
KFL1 020245Z 31004KT M05/M15 A3034 RMK A01 T10521147  RH  047%=      5-min Rain = 0
KFL1 020246Z 31004KT M05/M15 A3034 RMK A01 T10511146  RH  047%=      5-min Rain = 0
KFL1 020247Z 31004KT M05/M15 A3034 RMK A01 T10511147  RH  047%=      5-min Rain = 0
KFL1 020248Z 31004KT M06/M15 A3034 RMK A01 T10561146  RH  049%=      5-min Rain = 0
KFL1 020249Z 30004KT M07/M15 A3034 RMK A01 T10671148  RH  053%=      5-min Rain = 0
KFL1 020250Z 31004KT M08/M15 A3034 RMK A01 T10751145  RH  057%=      5-min Rain = 0
KFL1 020251Z 31004KT M08/M14 A3034 RMK A01 T10811142  RH  062%=      5-min Rain = 0
KFL1 020252Z 31004KT M09/M14 A3034 RMK A01 T10851140  RH  064%=      5-min Rain = 0
KFL1 020253Z 31004KT M09/M14 A3034 RMK A01 T10861137  RH  066%=      5-min Rain = 0
KFL1 020254Z 31004KT M09/M14 A3034 RMK A01 T10891137  RH  068%=      5-min Rain = 0
KFL1 020255Z 32004KT M09/M14 A3034 RMK A01 T10911136  RH  070%=      5-min Rain = 0
KFL1 020256Z 32004KT M09/M14 A3034 RMK A01 T10921135  RH  071%=      5-min Rain = 0
KFL1 020257Z 32004KT M09/M13 A3034 RMK A01 T10911133  RH  072%=      5-min Rain = 0
KFL1 020258Z 32004KT M09/M13 A3034 RMK A01 T10921133  RH  072%=      5-min Rain = 0
KFL1 020259Z 32004KT M09/M13 A3034 RMK A01 T10931133  RH  072%=      5-min Rain = 0
KFL1 020300Z 33004KT M09/M13 A3034 RMK A01 T10931133  RH  072%=      5-min Rain = 0
KFL1 020301Z 33004KT M09/M13 A3034 RMK A01 T10911132  RH  072%=      5-min Rain = 0
KFL1 020302Z 33004KT M09/M13 A3034 RMK A01 T10901133  RH  071%=      5-min Rain = 0
KFL1 020303Z 34004KT M09/M13 A3034 RMK A01 T10901134  RH  071%=      5-min Rain = 0
KFL1 020304Z 33004KT M09/M14 A3034 RMK A01 T10891135  RH  069%=      5-min Rain = 0
KFL1 020305Z 34004KT M08/M13 A3034 RMK A01 T10841133  RH  068%=      5-min Rain = 0
KFL1 020306Z 35004KT M08/M13 A3034 RMK A01 T10811134  RH  066%=      5-min Rain = 0
KFL1 020307Z 35005KT M07/M14 A3034 RMK A01 T10741135  RH  062%=      5-min Rain = 0
KFL1 020308Z 35005KT M07/M14 A3034 RMK A01 T10711138  RH  059%=      5-min Rain = 0
KFL1 020309Z 35005KT M07/M14 A3034 RMK A01 T10731141  RH  059%=      5-min Rain = 0
KFL1 020310Z 35005KT M08/M14 A3034 RMK A01 T10761142  RH  059%=      5-min Rain = 0
KFL1 020311Z 35005KT M08/M14 A3034 RMK A01 T10761142  RH  059%=      5-min Rain = 0
KFL1 020312Z 35005KT M08/M14 A3034 RMK A01 T10761142  RH  059%=      5-min Rain = 0
KFL1 020313Z 35005KT M07/M14 A3034 RMK A01 T10731141  RH  058%=      5-min Rain = 0
KFL1 020314Z 35005KT M07/M14 A3034 RMK A01 T10711142  RH  057%=      5-min Rain = 0
KFL1 020315Z 35005KT M07/M14 A3034 RMK A01 T10671141  RH  056%=      5-min Rain = 0
KFL1 020316Z 35005KT M06/M14 A3034 RMK A01 T10641141  RH  055%=      5-min Rain = 0
KFL1 020317Z 35005KT M06/M14 A3034 RMK A01 T10631142  RH  054%=      5-min Rain = 0
KFL1 020318Z 35005KT M06/M14 A3034 RMK A01 T10631143  RH  053%=      5-min Rain = 0
KFL1 020319Z 35005KT M07/M15 A3034 RMK A01 T10711146  RH  055%=      5-min Rain = 0
KFL1 020320Z 35005KT M08/M15 A3034 RMK A01 T10781148  RH  057%=      5-min Rain = 0
KFL1 020321Z 35005KT M08/M15 A3033 RMK A01 T10781145  RH  058%=      5-min Rain = 0
KFL1 020322Z 35006KT M08/M14 A3033 RMK A01 T10751142  RH  059%=      5-min Rain = 0
KFL1 020323Z 35006KT M08/M14 A3033 RMK A01 T10751143  RH  058%=      5-min Rain = 0
KFL1 020324Z 35006KT M08/M14 A3033 RMK A01 T10761144  RH  058%=      5-min Rain = 0
KFL1 020325Z 35006KT M08/M15 A3033 RMK A01 T10771145  RH  058%=      5-min Rain = 0
KFL1 020326Z 35006KT M08/M15 A3033 RMK A01 T10761145  RH  058%=      5-min Rain = 0
KFL1 020327Z 35006KT M07/M14 A3033 RMK A01 T10701142  RH  056%=      5-min Rain = 0
KFL1 020328Z 36006KT M06/M14 A3033 RMK A01 T10641142  RH  054%=      5-min Rain = 0
KFL1 020329Z 00006KT M06/M14 A3033 RMK A01 T10611143  RH  052%=      5-min Rain = 0
KFL1 020330Z 00006KT M06/M15 A3033 RMK A01 T10601146  RH  051%=      5-min Rain = 0
KFL1 020331Z 00006KT M06/M15 A3033 RMK A01 T10591146  RH  050%=      5-min Rain = 0
KFL1 020332Z 00006KT M06/M15 A3033 RMK A01 T10621149  RH  050%=      5-min Rain = 0
KFL1 020333Z 00006KT M07/M15 A3033 RMK A01 T10651149  RH  051%=      5-min Rain = 0
KFL1 020334Z 00006KT M07/M15 A3033 RMK A01 T10661148  RH  052%=      5-min Rain = 0
KFL1 020335Z 00006KT M07/M15 A3033 RMK A01 T10681149  RH  053%=      5-min Rain = 0
KFL1 020336Z 00006KT M08/M15 A3033 RMK A01 T10751152  RH  054%=      5-min Rain = 0
KFL1 020337Z 00006KT M08/M15 A3033 RMK A01 T10781151  RH  056%=      5-min Rain = 0
KFL1 020338Z 00006KT M08/M15 A3033 RMK A01 T10801150  RH  057%=      5-min Rain = 0
KFL1 020339Z 00006KT M08/M15 A3033 RMK A01 T10801149  RH  058%=      5-min Rain = 0
KFL1 020340Z 01006KT M08/M15 A3033 RMK A01 T10791147  RH  058%=      5-min Rain = 0
KFL1 020341Z 02007KT M08/M15 A3033 RMK A01 T10801145  RH  059%=      5-min Rain = 0
KFL1 020342Z 02007KT M08/M15 A3033 RMK A01 T10831145  RH  061%=      5-min Rain = 0
KFL1 020343Z 03006KT M08/M14 A3033 RMK A01 T10811143  RH  061%=      5-min Rain = 0
KFL1 020344Z 03006KT M08/M15 A3033 RMK A01 T10771145  RH  058%=      5-min Rain = 0
KFL1 020345Z 03006KT M07/M14 A3033 RMK A01 T10701144  RH  056%=      5-min Rain = 0
KFL1 020346Z 03005KT M06/M14 A3033 RMK A01 T10641143  RH  053%=      5-min Rain = 0
KFL1 020347Z 03004KT M06/M14 A3033 RMK A01 T10601144  RH  052%=      5-min Rain = 0
KFL1 020348Z 02004KT M06/M15 A3033 RMK A01 T10641147  RH  052%=      5-min Rain = 0
KFL1 020349Z 02004KT M07/M15 A3033 RMK A01 T10671146  RH  053%=      5-min Rain = 0
KFL1 020350Z 02004KT M07/M15 A3034 RMK A01 T10711147  RH  055%=      5-min Rain = 0
KFL1 020351Z 02004KT M07/M14 A3034 RMK A01 T10721144  RH  057%=      5-min Rain = 0
KFL1 020352Z 02003KT M07/M14 A3034 RMK A01 T10731142  RH  058%=      5-min Rain = 0
KFL1 020353Z 04002KT M07/M14 A3034 RMK A01 T10721141  RH  058%=      5-min Rain = 0
KFL1 020354Z 04003KT M07/M14 A3034 RMK A01 T10701140  RH  057%=      5-min Rain = 0
KFL1 020355Z 03003KT M07/M14 A3034 RMK A01 T10671138  RH  057%=      5-min Rain = 0
KFL1 020356Z 04004KT M06/M14 A3034 RMK A01 T10631138  RH  056%=      5-min Rain = 0
KFL1 020357Z 05004KT M06/M14 A3034 RMK A01 T10611135  RH  055%=      5-min Rain = 0
KFL1 020358Z 05004KT M06/M13 A3034 RMK A01 T10571133  RH  055%=      5-min Rain = 0
KFL1 020359Z 05005KT M06/M13 A3034 RMK A01 T10561132  RH  055%=      5-min Rain = 0
KFL1 020400Z 05006KT M06/M13 A3034 RMK A01 T10561132  RH  055%=      5-min Rain = 0
KFL1 020401Z 05006KT M06/M13 A3034 RMK A01 T10551130  RH  055%=      5-min Rain = 0
KFL1 020402Z 05007KT M06/M13 A3034 RMK A01 T10551130  RH  055%=      5-min Rain = 0
KFL1 020403Z 05006KT M06/M13 A3034 RMK A01 T10551130  RH  056%=      5-min Rain = 0
KFL1 020404Z 04007KT M05/M13 A3034 RMK A01 T10541129  RH  056%=      5-min Rain = 0
KFL1 020405Z 04006KT M05/M13 A3034 RMK A01 T10541127  RH  056%=      5-min Rain = 0
KFL1 020406Z 04007KT M06/M13 A3034 RMK A01 T10551129  RH  056%=      5-min Rain = 0
KFL1 020407Z 04006KT M05/M13 A3034 RMK A01 T10541128  RH  056%=      5-min Rain = 0
KFL1 020408Z 04006KT M06/M13 A3034 RMK A01 T10551129  RH  056%=      5-min Rain = 0
KFL1 020409Z 04006KT M06/M13 A3034 RMK A01 T10551129  RH  056%=      5-min Rain = 0
KFL1 020410Z 05007KT M05/M13 A3034 RMK A01 T10531128  RH  056%=      5-min Rain = 0
KFL1 020411Z 05007KT M05/M13 A3034 RMK A01 T10531128  RH  056%=      5-min Rain = 0
KFL1 020412Z 05007KT M05/M13 A3034 RMK A01 T10541129  RH  056%=      5-min Rain = 0
KFL1 020413Z 05008KT M06/M13 A3034 RMK A01 T10551129  RH  056%=      5-min Rain = 0
KFL1 020414Z 05008KT M06/M13 A3034 RMK A01 T10551129  RH  056%=      5-min Rain = 0
KFL1 020415Z 05008KT M05/M13 A3034 RMK A01 T10541129  RH  056%=      5-min Rain = 0
KFL1 020416Z 04008KT M05/M13 A3034 RMK A01 T10531127  RH  056%=      5-min Rain = 0
KFL1 020417Z 05009KT M05/M13 A3034 RMK A01 T10521127  RH  056%=      5-min Rain = 0
KFL1 020418Z 05008KT M05/M13 A3034 RMK A01 T10531128  RH  055%=      5-min Rain = 0
KFL1 020419Z 05008KT M05/M13 A3034 RMK A01 T10511127  RH  055%=      5-min Rain = 0
KFL1 020420Z 05008KT M05/M13 A3035 RMK A01 T10521129  RH  055%=      5-min Rain = 0
KFL1 020421Z 05007KT M05/M13 A3035 RMK A01 T10501127  RH  055%=      5-min Rain = 0
KFL1 020422Z 05008KT M05/M13 A3034 RMK A01 T10501127  RH  055%=      5-min Rain = 0
KFL1 020423Z 05007KT M05/M13 A3034 RMK A01 T10491126  RH  055%=      5-min Rain = 0
KFL1 020424Z 05008KT M05/M13 A3034 RMK A01 T10471125  RH  054%=      5-min Rain = 0
KFL1 020425Z 05008KT M05/M13 A3034 RMK A01 T10481127  RH  054%=      5-min Rain = 0
KFL1 020426Z 05007KT M05/M13 A3035 RMK A01 T10471126  RH  054%=      5-min Rain = 0
KFL1 020427Z 05007KT M05/M13 A3035 RMK A01 T10491127  RH  054%=      5-min Rain = 0
KFL1 020428Z 05008KT M05/M13 A3035 RMK A01 T10491127  RH  055%=      5-min Rain = 0
KFL1 020429Z 05008KT M05/M13 A3035 RMK A01 T10501126  RH  055%=      5-min Rain = 0
KFL1 020430Z 05008KT M05/M13 A3035 RMK A01 T10491125  RH  055%=      5-min Rain = 0
KFL1 020431Z 05007KT M05/M13 A3035 RMK A01 T10501126  RH  055%=      5-min Rain = 0
KFL1 020432Z 05007KT M05/M13 A3035 RMK A01 T10501126  RH  055%=      5-min Rain = 0
KFL1 020433Z 05007KT M05/M13 A3035 RMK A01 T10501126  RH  055%=      5-min Rain = 0
KFL1 020434Z 05008KT M05/M13 A3035 RMK A01 T10501126  RH  055%=      5-min Rain = 0
KFL1 020435Z 05008KT M05/M13 A3035 RMK A01 T10501126  RH  055%=      5-min Rain = 0
KFL1 020436Z 04008KT M05/M13 A3035 RMK A01 T10501127  RH  055%=      5-min Rain = 0
KFL1 020437Z 04008KT M05/M13 A3034 RMK A01 T10481125  RH  055%=      5-min Rain = 0
KFL1 020438Z 05008KT M05/M13 A3034 RMK A01 T10481125  RH  055%=      5-min Rain = 0
KFL1 020439Z 04009KT M05/M13 A3034 RMK A01 T10491126  RH  055%=      5-min Rain = 0
KFL1 020440Z 04009KT M05/M13 A3034 RMK A01 T10481125  RH  055%=      5-min Rain = 0
KFL1 020441Z 04009KT M05/M13 A3034 RMK A01 T10491127  RH  054%=      5-min Rain = 0
KFL1 020442Z 04009KT M05/M13 A3034 RMK A01 T10471126  RH  054%=      5-min Rain = 0
KFL1 020443Z 04008KT M05/M13 A3034 RMK A01 T10481126  RH  054%=      5-min Rain = 0
KFL1 020444Z 05008KT M05/M13 A3034 RMK A01 T10471126  RH  054%=      5-min Rain = 0
KFL1 020445Z 05009KT M05/M13 A3034 RMK A01 T10481125  RH  055%=      5-min Rain = 0
KFL1 020446Z 05008KT M05/M13 A3034 RMK A01 T10491126  RH  055%=      5-min Rain = 0
KFL1 020447Z 05008KT M05/M13 A3034 RMK A01 T10491126  RH  055%=      5-min Rain = 0
KFL1 020448Z 05008KT M05/M13 A3034 RMK A01 T10491126  RH  055%=      5-min Rain = 0
KFL1 020449Z 04008KT M05/M13 A3034 RMK A01 T10501126  RH  055%=      5-min Rain = 0
KFL1 020450Z 04009KT M05/M13 A3034 RMK A01 T10491126  RH  055%=      5-min Rain = 0
KFL1 020451Z 04008KT M05/M13 A3034 RMK A01 T10481125  RH  055%=      5-min Rain = 0
KFL1 020452Z 04009KT M05/M13 A3034 RMK A01 T10481125  RH  055%=      5-min Rain = 0
KFL1 020453Z 04008KT M05/M13 A3034 RMK A01 T10491127  RH  054%=      5-min Rain = 0
KFL1 020454Z 04009KT M05/M13 A3034 RMK A01 T10491126  RH  055%=      5-min Rain = 0
KFL1 020455Z 04009KT M05/M13 A3034 RMK A01 T10501127  RH  055%=      5-min Rain = 0
KFL1 020456Z 04008KT M05/M13 A3034 RMK A01 T10501126  RH  055%=      5-min Rain = 0
KFL1 020457Z 05009KT M05/M13 A3034 RMK A01 T10511127  RH  055%=      5-min Rain = 0
KFL1 020458Z 04010KT M05/M13 A3034 RMK A01 T10511125  RH  056%=      5-min Rain = 0
KFL1 020459Z 04010KT M05/M13 A3034 RMK A01 T10511125  RH  056%=      5-min Rain = 0
KFL1 020500Z 05009KT M05/M13 A3034 RMK A01 T10501126  RH  056%=      5-min Rain = 0
KFL1 020501Z 05010KT M05/M13 A3034 RMK A01 T10521127  RH  055%=      5-min Rain = 0
KFL1 020502Z 05009KT M05/M13 A3034 RMK A01 T10511127  RH  056%=      5-min Rain = 0
KFL1 020503Z 04009KT M05/M13 A3034 RMK A01 T10531128  RH  056%=      5-min Rain = 0
KFL1 020504Z 05010KT M05/M13 A3034 RMK A01 T10531127  RH  056%=      5-min Rain = 0
KFL1 020505Z 04009KT M05/M13 A3034 RMK A01 T10541127  RH  056%=      5-min Rain = 0
KFL1 020506Z 04010KT M05/M13 A3034 RMK A01 T10531126  RH  056%=      5-min Rain = 0
KFL1 020507Z 04011KT M05/M13 A3034 RMK A01 T10531126  RH  056%=      5-min Rain = 0
KFL1 020508Z 04010KT M05/M13 A3034 RMK A01 T10541128  RH  056%=      5-min Rain = 0
KFL1 020509Z 04008KT M05/M13 A3034 RMK A01 T10541128  RH  056%=      5-min Rain = 0
KFL1 020510Z 05009KT M06/M13 A3034 RMK A01 T10551129  RH  056%=      5-min Rain = 0
KFL1 020511Z 04010KT M05/M13 A3033 RMK A01 T10531127  RH  056%=      5-min Rain = 0
KFL1 020512Z 04010KT M05/M13 A3033 RMK A01 T10531128  RH  056%=      5-min Rain = 0
KFL1 020513Z 05009KT M05/M13 A3033 RMK A01 T10521127  RH  055%=      5-min Rain = 0
KFL1 020514Z 04010KT M05/M13 A3033 RMK A01 T10501127  RH  055%=      5-min Rain = 0
KFL1 020515Z 04010KT M05/M13 A3033 RMK A01 T10491127  RH  055%=      5-min Rain = 0
KFL1 020516Z 04010KT M05/M13 A3033 RMK A01 T10501129  RH  054%=      5-min Rain = 0
KFL1 020517Z 05009KT M05/M13 A3033 RMK A01 T10491128  RH  054%=      5-min Rain = 0
KFL1 020518Z 04010KT M05/M13 A3033 RMK A01 T10501129  RH  054%=      5-min Rain = 0
KFL1 020519Z 04010KT M05/M13 A3033 RMK A01 T10491128  RH  054%=      5-min Rain = 0
KFL1 020520Z 05010KT M05/M13 A3033 RMK A01 T10491128  RH  054%=      5-min Rain = 0
KFL1 020521Z 04009KT M05/M13 A3033 RMK A01 T10491128  RH  054%=      5-min Rain = 0
KFL1 020522Z 04009KT M05/M13 A3033 RMK A01 T10481128  RH  054%=      5-min Rain = 0
KFL1 020523Z 04010KT M05/M13 A3033 RMK A01 T10491129  RH  054%=      5-min Rain = 0
KFL1 020524Z 04010KT M05/M13 A3033 RMK A01 T10481129  RH  053%=      5-min Rain = 0
KFL1 020525Z 04010KT M05/M13 A3033 RMK A01 T10491130  RH  053%=      5-min Rain = 0
KFL1 020526Z 04010KT M05/M13 A3033 RMK A01 T10491130  RH  053%=      5-min Rain = 0
KFL1 020527Z 04010KT M05/M13 A3033 RMK A01 T10481129  RH  053%=      5-min Rain = 0
KFL1 020528Z 04009KT M05/M13 A3033 RMK A01 T10491130  RH  053%=      5-min Rain = 0
KFL1 020529Z 04009KT M05/M13 A3033 RMK A01 T10471129  RH  053%=      5-min Rain = 0
KFL1 020530Z 04009KT M05/M13 A3033 RMK A01 T10471130  RH  052%=      5-min Rain = 0
KFL1 020531Z 04010KT M05/M13 A3033 RMK A01 T10461130  RH  052%=      5-min Rain = 0
KFL1 020532Z 04010KT M05/M13 A3033 RMK A01 T10461131  RH  052%=      5-min Rain = 0
KFL1 020533Z 04009KT M05/M13 A3033 RMK A01 T10451130  RH  051%=      5-min Rain = 0
KFL1 020534Z 04010KT M05/M13 A3033 RMK A01 T10451131  RH  051%=      5-min Rain = 0
KFL1 020535Z 04009KT M04/M13 A3033 RMK A01 T10441130  RH  051%=      5-min Rain = 0
KFL1 020536Z 04009KT M04/M13 A3033 RMK A01 T10431129  RH  051%=      5-min Rain = 0
KFL1 020537Z 03008KT M04/M13 A3033 RMK A01 T10441131  RH  051%=      5-min Rain = 0
KFL1 020538Z 03007KT M04/M13 A3033 RMK A01 T10431131  RH  050%=      5-min Rain = 0
KFL1 020539Z 03007KT M04/M13 A3033 RMK A01 T10441133  RH  050%=      5-min Rain = 0
KFL1 020540Z 03007KT M04/M13 A3033 RMK A01 T10421131  RH  050%=      5-min Rain = 0
KFL1 020541Z 03006KT M04/M13 A3033 RMK A01 T10421131  RH  050%=      5-min Rain = 0
KFL1 020542Z 03009KT M04/M13 A3033 RMK A01 T10441132  RH  050%=      5-min Rain = 0
KFL1 020543Z 03008KT M04/M13 A3033 RMK A01 T10441132  RH  050%=      5-min Rain = 0
KFL1 020544Z 03009KT M05/M13 A3033 RMK A01 T10451132  RH  050%=      5-min Rain = 0
KFL1 020545Z 03008KT M04/M13 A3033 RMK A01 T10441132  RH  050%=      5-min Rain = 0
KFL1 020546Z 03007KT M05/M13 A3033 RMK A01 T10461134  RH  050%=      5-min Rain = 0
KFL1 020547Z 04007KT M05/M13 A3033 RMK A01 T10451132  RH  051%=      5-min Rain = 0
KFL1 020548Z 03008KT M05/M13 A3033 RMK A01 T10461132  RH  051%=      5-min Rain = 0
KFL1 020549Z 03008KT M05/M13 A3033 RMK A01 T10471132  RH  052%=      5-min Rain = 0
KFL1 020550Z 03008KT M05/M13 A3033 RMK A01 T10491133  RH  052%=      5-min Rain = 0
KFL1 020551Z 03008KT M05/M13 A3033 RMK A01 T10501133  RH  052%=      5-min Rain = 0
KFL1 020552Z 04009KT M05/M13 A3033 RMK A01 T10501134  RH  052%=      5-min Rain = 0
KFL1 020553Z 03009KT M05/M13 A3033 RMK A01 T10501133  RH  052%=      5-min Rain = 0
KFL1 020554Z 03008KT M05/M13 A3033 RMK A01 T10491133  RH  052%=      5-min Rain = 0
KFL1 020555Z 03007KT M05/M13 A3033 RMK A01 T10481133  RH  051%=      5-min Rain = 0
KFL1 020556Z 03007KT M05/M13 A3033 RMK A01 T10461132  RH  051%=      5-min Rain = 0
KFL1 020557Z 03007KT M05/M13 A3033 RMK A01 T10501134  RH  051%=      5-min Rain = 0
KFL1 020558Z 03008KT M05/M14 A3033 RMK A01 T10511135  RH  052%=      5-min Rain = 0
KFL1 020559Z 03008KT M06/M14 A3033 RMK A01 T10561137  RH  053%=      5-min Rain = 0

Page generated in 0.0693 seconds.